Observation data for Truscott on 12/13/2019      Previous  Date       Current Mesonet Observations  Soil Data  Daily Summary Page  Observations in Plain Language
KTR1 130600Z 30002KT 03/01 A2995 RMK A01 T00260007  RH  088%=      5-min Rain = 0
KTR1 130601Z 29002KT 03/01 A2995 RMK A01 T00260008  RH  088%=      5-min Rain = 0
KTR1 130602Z 28002KT 03/01 A2995 RMK A01 T00270008  RH  088%=      5-min Rain = 0
KTR1 130603Z 28002KT 03/01 A2995 RMK A01 T00270007  RH  087%=      5-min Rain = 0
KTR1 130604Z 29002KT 03/01 A2994 RMK A01 T00260007  RH  087%=      5-min Rain = 0
KTR1 130605Z 29002KT 03/01 A2994 RMK A01 T00250006  RH  087%=      5-min Rain = 0
KTR1 130606Z 29003KT 03/01 A2994 RMK A01 T00250006  RH  087%=      5-min Rain = 0
KTR1 130607Z 29002KT 02/01 A2994 RMK A01 T00240005  RH  087%=      5-min Rain = 0
KTR1 130608Z 29002KT 02/01 A2994 RMK A01 T00240006  RH  088%=      5-min Rain = 0
KTR1 130609Z 29003KT 02/01 A2994 RMK A01 T00240006  RH  088%=      5-min Rain = 0
KTR1 130610Z 29002KT 02/01 A2994 RMK A01 T00240006  RH  088%=      5-min Rain = 0
KTR1 130611Z 29002KT 02/01 A2994 RMK A01 T00230007  RH  089%=      5-min Rain = 0
KTR1 130612Z 29002KT 02/01 A2994 RMK A01 T00240008  RH  089%=      5-min Rain = 0
KTR1 130613Z 29002KT 03/01 A2994 RMK A01 T00250009  RH  089%=      5-min Rain = 0
KTR1 130614Z 29002KT 03/01 A2994 RMK A01 T00250009  RH  089%=      5-min Rain = 0
KTR1 130615Z 29003KT 03/01 A2994 RMK A01 T00250009  RH  089%=      5-min Rain = 0
KTR1 130616Z 30003KT 03/01 A2994 RMK A01 T00260011  RH  090%=      5-min Rain = 0
KTR1 130617Z 30003KT 03/01 A2994 RMK A01 T00270012  RH  090%=      5-min Rain = 0
KTR1 130618Z 30003KT 03/01 A2994 RMK A01 T00270011  RH  089%=      5-min Rain = 0
KTR1 130619Z 30002KT 03/01 A2994 RMK A01 T00270008  RH  087%=      5-min Rain = 0
KTR1 130620Z 30003KT 03/01 A2994 RMK A01 T00260006  RH  087%=      5-min Rain = 0
KTR1 130621Z 30003KT 03/01 A2994 RMK A01 T00250006  RH  087%=      5-min Rain = 0
KTR1 130622Z 30003KT 03/01 A2994 RMK A01 T00250007  RH  088%=      5-min Rain = 0
KTR1 130623Z 30003KT 03/01 A2994 RMK A01 T00250008  RH  088%=      5-min Rain = 0
KTR1 130624Z 30003KT 03/01 A2994 RMK A01 T00250009  RH  089%=      5-min Rain = 0
KTR1 130625Z 30003KT 03/01 A2994 RMK A01 T00260010  RH  089%=      5-min Rain = 0
KTR1 130626Z 30004KT 03/01 A2994 RMK A01 T00260010  RH  089%=      5-min Rain = 0
KTR1 130627Z 29004KT 03/01 A2994 RMK A01 T00260008  RH  088%=      5-min Rain = 0
KTR1 130628Z 29004KT 02/00 A2994 RMK A01 T00240004  RH  087%=      5-min Rain = 0
KTR1 130629Z 29004KT 02/00 A2994 RMK A01 T00220001  RH  086%=      5-min Rain = 0
KTR1 130630Z 29004KT 02/00 A2994 RMK A01 T00210002  RH  087%=      5-min Rain = 0
KTR1 130631Z 29004KT 02/00 A2994 RMK A01 T00200001  RH  087%=      5-min Rain = 0
KTR1 130632Z 30004KT 02/00 A2994 RMK A01 T00200002  RH  088%=      5-min Rain = 0
KTR1 130633Z 30004KT 02/00 A2995 RMK A01 T00200004  RH  090%=      5-min Rain = 0
KTR1 130634Z 30004KT 02/01 A2995 RMK A01 T00210007  RH  091%=      5-min Rain = 0
KTR1 130635Z 30004KT 02/01 A2995 RMK A01 T00220009  RH  091%=      5-min Rain = 0
KTR1 130636Z 30004KT 02/01 A2994 RMK A01 T00230008  RH  090%=      5-min Rain = 0
KTR1 130637Z 30003KT 02/01 A2994 RMK A01 T00230008  RH  090%=      5-min Rain = 0
KTR1 130638Z 30004KT 02/01 A2994 RMK A01 T00230007  RH  089%=      5-min Rain = 0
KTR1 130639Z 31004KT 02/01 A2994 RMK A01 T00230009  RH  090%=      5-min Rain = 0
KTR1 130640Z 31004KT 02/01 A2994 RMK A01 T00230008  RH  090%=      5-min Rain = 0
KTR1 130641Z 32004KT 02/01 A2995 RMK A01 T00230008  RH  090%=      5-min Rain = 0
KTR1 130642Z 32004KT 02/01 A2995 RMK A01 T00230007  RH  090%=      5-min Rain = 0
KTR1 130643Z 32004KT 02/01 A2994 RMK A01 T00220006  RH  089%=      5-min Rain = 0
KTR1 130644Z 33005KT 02/00 A2994 RMK A01 T00210003  RH  088%=      5-min Rain = 0
KTR1 130645Z 33005KT 02/00 A2994 RMK A01 T00200004  RH  089%=      5-min Rain = 0
KTR1 130646Z 33005KT 02/00 A2994 RMK A01 T00190002  RH  089%=      5-min Rain = 0
KTR1 130647Z 33005KT 02/00 A2994 RMK A01 T00170001  RH  089%=      5-min Rain = 0
KTR1 130648Z 33004KT 02/00 A2994 RMK A01 T00150000  RH  090%=      5-min Rain = 0
KTR1 130649Z 33004KT 01/00 A2994 RMK A01 T00140001  RH  091%=      5-min Rain = 0
KTR1 130650Z 33004KT 01/00 A2994 RMK A01 T00140002  RH  092%=      5-min Rain = 0
KTR1 130651Z 33004KT 01/00 A2994 RMK A01 T00140003  RH  092%=      5-min Rain = 0
KTR1 130652Z 33004KT 02/00 A2994 RMK A01 T00150004  RH  093%=      5-min Rain = 0
KTR1 130653Z 33004KT 02/01 A2994 RMK A01 T00160006  RH  093%=      5-min Rain = 0
KTR1 130654Z 33005KT 02/01 A2994 RMK A01 T00170008  RH  094%=      5-min Rain = 0
KTR1 130655Z 33005KT 02/01 A2994 RMK A01 T00180008  RH  093%=      5-min Rain = 0
KTR1 130656Z 33006KT 02/01 A2994 RMK A01 T00180006  RH  092%=      5-min Rain = 0
KTR1 130657Z 33006KT 02/01 A2994 RMK A01 T00180005  RH  091%=      5-min Rain = 0
KTR1 130658Z 33006KT 02/00 A2994 RMK A01 T00170004  RH  091%=      5-min Rain = 0
KTR1 130659Z 33006KT 02/00 A2994 RMK A01 T00160003  RH  091%=      5-min Rain = 0
KTR1 130700Z 34006KT 02/00 A2994 RMK A01 T00160003  RH  091%=      5-min Rain = 0
KTR1 130701Z 34006KT 02/00 A2994 RMK A01 T00150003  RH  092%=      5-min Rain = 0
KTR1 130702Z 33006KT 01/00 A2994 RMK A01 T00140003  RH  092%=      5-min Rain = 0
KTR1 130703Z 33005KT 01/00 A2994 RMK A01 T00140003  RH  093%=      5-min Rain = 0
KTR1 130704Z 34005KT 01/01 A2994 RMK A01 T00140005  RH  093%=      5-min Rain = 0
KTR1 130705Z 35005KT 01/01 A2994 RMK A01 T00140006  RH  094%=      5-min Rain = 0
KTR1 130706Z 34005KT 02/01 A2994 RMK A01 T00150007  RH  094%=      5-min Rain = 0
KTR1 130707Z 34005KT 02/01 A2994 RMK A01 T00150006  RH  094%=      5-min Rain = 0
KTR1 130708Z 34006KT 02/01 A2994 RMK A01 T00150006  RH  094%=      5-min Rain = 0
KTR1 130709Z 35006KT 02/01 A2994 RMK A01 T00150007  RH  094%=      5-min Rain = 0
KTR1 130710Z 35006KT 02/01 A2994 RMK A01 T00150007  RH  095%=      5-min Rain = 0
KTR1 130711Z 34006KT 02/01 A2993 RMK A01 T00160008  RH  095%=      5-min Rain = 0
KTR1 130712Z 34006KT 02/01 A2993 RMK A01 T00160009  RH  095%=      5-min Rain = 0
KTR1 130713Z 34006KT 02/01 A2993 RMK A01 T00170010  RH  095%=      5-min Rain = 0
KTR1 130714Z 34006KT 02/01 A2993 RMK A01 T00180011  RH  095%=      5-min Rain = 0
KTR1 130715Z 35005KT 02/01 A2993 RMK A01 T00190011  RH  095%=      5-min Rain = 0
KTR1 130716Z 34005KT 02/01 A2993 RMK A01 T00190011  RH  095%=      5-min Rain = 0
KTR1 130717Z 34005KT 02/01 A2993 RMK A01 T00190011  RH  094%=      5-min Rain = 0
KTR1 130718Z 34005KT 02/01 A2993 RMK A01 T00190010  RH  094%=      5-min Rain = 0
KTR1 130719Z 33005KT 02/01 A2993 RMK A01 T00190010  RH  094%=      5-min Rain = 0
KTR1 130720Z 33005KT 02/01 A2993 RMK A01 T00190009  RH  093%=      5-min Rain = 0
KTR1 130721Z 33005KT 02/01 A2993 RMK A01 T00190008  RH  093%=      5-min Rain = 0
KTR1 130722Z 33005KT 02/01 A2993 RMK A01 T00180007  RH  092%=      5-min Rain = 0
KTR1 130723Z 32005KT 02/01 A2993 RMK A01 T00170006  RH  092%=      5-min Rain = 0
KTR1 130724Z 32005KT 02/01 A2993 RMK A01 T00170005  RH  092%=      5-min Rain = 0
KTR1 130725Z 32004KT 02/00 A2993 RMK A01 T00160004  RH  092%=      5-min Rain = 0
KTR1 130726Z 32004KT 02/00 A2992 RMK A01 T00150003  RH  092%=      5-min Rain = 0
KTR1 130727Z 31004KT 02/00 A2992 RMK A01 T00150004  RH  092%=      5-min Rain = 0
KTR1 130728Z 32005KT 02/00 A2992 RMK A01 T00150004  RH  092%=      5-min Rain = 0
KTR1 130729Z 31005KT 02/00 A2992 RMK A01 T00150004  RH  092%=      5-min Rain = 0
KTR1 130730Z 32005KT 02/00 A2993 RMK A01 T00150003  RH  092%=      5-min Rain = 0
KTR1 130731Z 32004KT 02/00 A2993 RMK A01 T00150003  RH  092%=      5-min Rain = 0
KTR1 130732Z 31005KT 02/00 A2992 RMK A01 T00150002  RH  091%=      5-min Rain = 0
KTR1 130733Z 32005KT 01/00 A2992 RMK A01 T00140002  RH  091%=      5-min Rain = 0
KTR1 130734Z 32005KT 01/00 A2992 RMK A01 T00140002  RH  092%=      5-min Rain = 0
KTR1 130735Z 32005KT 01/00 A2992 RMK A01 T00140002  RH  092%=      5-min Rain = 0
KTR1 130736Z 32005KT 01/00 A2992 RMK A01 T00130002  RH  092%=      5-min Rain = 0
KTR1 130737Z 32004KT 01/00 A2992 RMK A01 T00130001  RH  092%=      5-min Rain = 0
KTR1 130738Z 32004KT 01/00 A2992 RMK A01 T00120000  RH  092%=      5-min Rain = 0
KTR1 130739Z 32004KT 01/00 A2992 RMK A01 T001100-0  RH  092%=      5-min Rain = 0
KTR1 130740Z 32004KT 01/00 A2992 RMK A01 T001100-0  RH  092%=      5-min Rain = 0
KTR1 130741Z 31005KT 01/00 A2992 RMK A01 T00110000  RH  093%=      5-min Rain = 0
KTR1 130742Z 31005KT 01/00 A2992 RMK A01 T00110000  RH  093%=      5-min Rain = 0
KTR1 130743Z 31006KT 01/00 A2992 RMK A01 T00110001  RH  093%=      5-min Rain = 0
KTR1 130744Z 31005KT 01/00 A2992 RMK A01 T00110000  RH  093%=      5-min Rain = 0
KTR1 130745Z 31006KT 01/00 A2992 RMK A01 T001000-0  RH  093%=      5-min Rain = 0
KTR1 130746Z 30005KT 01/M00 A2992 RMK A01 T00091002  RH  092%=      5-min Rain = 0
KTR1 130747Z 30005KT 01/M00 A2992 RMK A01 T00091001  RH  093%=      5-min Rain = 0
KTR1 130748Z 31005KT 01/M00 A2992 RMK A01 T00091001  RH  093%=      5-min Rain = 0
KTR1 130749Z 31006KT 01/00 A2992 RMK A01 T00100001  RH  094%=      5-min Rain = 0
KTR1 130750Z 31005KT 01/00 A2992 RMK A01 T00100001  RH  094%=      5-min Rain = 0
KTR1 130751Z 31005KT 01/00 A2992 RMK A01 T00100001  RH  094%=      5-min Rain = 0
KTR1 130752Z 31005KT 01/00 A2992 RMK A01 T00100001  RH  094%=      5-min Rain = 0
KTR1 130753Z 31005KT 01/00 A2992 RMK A01 T00100000  RH  094%=      5-min Rain = 0
KTR1 130754Z 31005KT 01/00 A2992 RMK A01 T00100000  RH  094%=      5-min Rain = 0
KTR1 130755Z 31005KT 01/00 A2992 RMK A01 T00090000  RH  094%=      5-min Rain = 0
KTR1 130756Z 31006KT 01/00 A2992 RMK A01 T000900-0  RH  094%=      5-min Rain = 0
KTR1 130757Z 32006KT 01/00 A2992 RMK A01 T00090000  RH  094%=      5-min Rain = 0
KTR1 130758Z 32006KT 01/00 A2992 RMK A01 T00090000  RH  094%=      5-min Rain = 0
KTR1 130759Z 32006KT 01/00 A2992 RMK A01 T000800-0  RH  094%=      5-min Rain = 0
KTR1 130800Z 31006KT 01/00 A2992 RMK A01 T00090000  RH  094%=      5-min Rain = 0
KTR1 130801Z 31006KT 01/00 A2992 RMK A01 T00090000  RH  094%=      5-min Rain = 0
KTR1 130802Z 31006KT 01/M00 A2992 RMK A01 T00081001  RH  094%=      5-min Rain = 0
KTR1 130803Z 31005KT 01/M00 A2992 RMK A01 T00081001  RH  094%=      5-min Rain = 0
KTR1 130804Z 31005KT 01/M00 A2992 RMK A01 T00081001  RH  094%=      5-min Rain = 0
KTR1 130805Z 31006KT 01/M00 A2992 RMK A01 T00081001  RH  094%=      5-min Rain = 0
KTR1 130806Z 31006KT 01/M00 A2992 RMK A01 T00081001  RH  094%=      5-min Rain = 0
KTR1 130807Z 31006KT 01/00 A2992 RMK A01 T000800-0  RH  094%=      5-min Rain = 0
KTR1 130808Z 31006KT 01/00 A2992 RMK A01 T000800-0  RH  094%=      5-min Rain = 0
KTR1 130809Z 32006KT 01/00 A2992 RMK A01 T000800-0  RH  094%=      5-min Rain = 0
KTR1 130810Z 32006KT 01/M00 A2992 RMK A01 T00081001  RH  094%=      5-min Rain = 0
KTR1 130811Z 31006KT 01/M00 A2992 RMK A01 T00081001  RH  094%=      5-min Rain = 0
KTR1 130812Z 31006KT 01/M00 A2992 RMK A01 T00071001  RH  094%=      5-min Rain = 0
KTR1 130813Z 31006KT 01/M00 A2991 RMK A01 T00061003  RH  094%=      5-min Rain = 0
KTR1 130814Z 32006KT 01/M00 A2991 RMK A01 T00061002  RH  094%=      5-min Rain = 0
KTR1 130815Z 32005KT 01/M00 A2991 RMK A01 T00061001  RH  094%=      5-min Rain = 0
KTR1 130816Z 32005KT 01/M00 A2991 RMK A01 T00071001  RH  095%=      5-min Rain = 0
KTR1 130817Z 31005KT 01/M00 A2991 RMK A01 T00071001  RH  095%=      5-min Rain = 0
KTR1 130818Z 31004KT 01/M00 A2991 RMK A01 T00071001  RH  095%=      5-min Rain = 0
KTR1 130819Z 31004KT 01/M00 A2991 RMK A01 T00071001  RH  095%=      5-min Rain = 0
KTR1 130820Z 30003KT 01/M00 A2991 RMK A01 T00071001  RH  095%=      5-min Rain = 0
KTR1 130821Z 29003KT 01/00 A2992 RMK A01 T000700-0  RH  095%=      5-min Rain = 0
KTR1 130822Z 29004KT 01/00 A2992 RMK A01 T00070000  RH  095%=      5-min Rain = 0
KTR1 130823Z 30004KT 01/00 A2992 RMK A01 T00090002  RH  095%=      5-min Rain = 0
KTR1 130824Z 30004KT 01/00 A2991 RMK A01 T00100004  RH  096%=      5-min Rain = 0
KTR1 130825Z 30004KT 01/00 A2991 RMK A01 T00110004  RH  095%=      5-min Rain = 0
KTR1 130826Z 30004KT 01/01 A2991 RMK A01 T00120005  RH  095%=      5-min Rain = 0
KTR1 130827Z 30004KT 01/01 A2991 RMK A01 T00120006  RH  095%=      5-min Rain = 0
KTR1 130828Z 30004KT 01/01 A2991 RMK A01 T00130005  RH  095%=      5-min Rain = 0
KTR1 130829Z 29004KT 01/01 A2991 RMK A01 T00140006  RH  095%=      5-min Rain = 0
KTR1 130830Z 29004KT 01/01 A2991 RMK A01 T00140006  RH  095%=      5-min Rain = 0
KTR1 130831Z 29004KT 01/01 A2991 RMK A01 T00140006  RH  094%=      5-min Rain = 0
KTR1 130832Z 29004KT 01/01 A2991 RMK A01 T00140005  RH  094%=      5-min Rain = 0
KTR1 130833Z 29004KT 01/00 A2991 RMK A01 T00130004  RH  093%=      5-min Rain = 0
KTR1 130834Z 29004KT 01/00 A2991 RMK A01 T00130002  RH  093%=      5-min Rain = 0
KTR1 130835Z 29004KT 01/00 A2991 RMK A01 T00110000  RH  092%=      5-min Rain = 0
KTR1 130836Z 30005KT 01/M00 A2991 RMK A01 T00101002  RH  092%=      5-min Rain = 0
KTR1 130837Z 30005KT 01/M00 A2991 RMK A01 T00081004  RH  092%=      5-min Rain = 0
KTR1 130838Z 30005KT 01/M01 A2991 RMK A01 T00071005  RH  092%=      5-min Rain = 0
KTR1 130839Z 30005KT 01/M01 A2991 RMK A01 T00061005  RH  092%=      5-min Rain = 0
KTR1 130840Z 31005KT 01/M00 A2991 RMK A01 T00061004  RH  093%=      5-min Rain = 0
KTR1 130841Z 30005KT 01/M00 A2991 RMK A01 T00061003  RH  094%=      5-min Rain = 0
KTR1 130842Z 29004KT 01/M00 A2991 RMK A01 T00061003  RH  094%=      5-min Rain = 0
KTR1 130843Z 29005KT 01/M00 A2991 RMK A01 T00061004  RH  093%=      5-min Rain = 0
KTR1 130844Z 29005KT 01/M01 A2991 RMK A01 T00051005  RH  093%=      5-min Rain = 0
KTR1 130845Z 29005KT 00/M01 A2991 RMK A01 T00041006  RH  093%=      5-min Rain = 0
KTR1 130846Z 30004KT 00/M01 A2991 RMK A01 T00031006  RH  093%=      5-min Rain = 0
KTR1 130847Z 30004KT 00/M01 A2991 RMK A01 T00041005  RH  094%=      5-min Rain = 0
KTR1 130848Z 29004KT 00/M01 A2991 RMK A01 T00041005  RH  094%=      5-min Rain = 0
KTR1 130849Z 29004KT 00/M00 A2991 RMK A01 T00041004  RH  094%=      5-min Rain = 0
KTR1 130850Z 29004KT 01/M00 A2991 RMK A01 T00051003  RH  094%=      5-min Rain = 0
KTR1 130851Z 30005KT 01/M00 A2991 RMK A01 T00051003  RH  094%=      5-min Rain = 0
KTR1 130852Z 30005KT 01/M00 A2991 RMK A01 T00061002  RH  094%=      5-min Rain = 0
KTR1 130853Z 30005KT 01/M00 A2991 RMK A01 T00061003  RH  094%=      5-min Rain = 0
KTR1 130854Z 30005KT 01/M00 A2991 RMK A01 T00061003  RH  094%=      5-min Rain = 0
KTR1 130855Z 30006KT 01/M00 A2991 RMK A01 T00061003  RH  094%=      5-min Rain = 0
KTR1 130856Z 30006KT 01/M00 A2991 RMK A01 T00061003  RH  094%=      5-min Rain = 0
KTR1 130857Z 30006KT 01/M00 A2991 RMK A01 T00051004  RH  094%=      5-min Rain = 0
KTR1 130858Z 31006KT 01/M01 A2991 RMK A01 T00051005  RH  094%=      5-min Rain = 0
KTR1 130859Z 31006KT 00/M00 A2991 RMK A01 T00041004  RH  094%=      5-min Rain = 0
KTR1 130900Z 30006KT 00/M00 A2991 RMK A01 T00041004  RH  094%=      5-min Rain = 0
KTR1 130901Z 30006KT 00/M01 A2991 RMK A01 T00041005  RH  094%=      5-min Rain = 0
KTR1 130902Z 30006KT 00/M01 A2991 RMK A01 T00031005  RH  094%=      5-min Rain = 0
KTR1 130903Z 30005KT 00/M01 A2991 RMK A01 T00031006  RH  094%=      5-min Rain = 0
KTR1 130904Z 31005KT 00/M01 A2991 RMK A01 T00031006  RH  094%=      5-min Rain = 0
KTR1 130905Z 30005KT 00/M01 A2991 RMK A01 T00021006  RH  094%=      5-min Rain = 0
KTR1 130906Z 30005KT 00/M01 A2991 RMK A01 T00031005  RH  094%=      5-min Rain = 0
KTR1 130907Z 30006KT 00/M01 A2991 RMK A01 T00031005  RH  095%=      5-min Rain = 0
KTR1 130908Z 31006KT 00/M00 A2991 RMK A01 T00031004  RH  095%=      5-min Rain = 0
KTR1 130909Z 31005KT 00/M00 A2991 RMK A01 T00041003  RH  095%=      5-min Rain = 0
KTR1 130910Z 31006KT 01/M00 A2991 RMK A01 T00051002  RH  095%=      5-min Rain = 0
KTR1 130911Z 31006KT 01/M00 A2991 RMK A01 T00051002  RH  095%=      5-min Rain = 0
KTR1 130912Z 31006KT 01/M00 A2991 RMK A01 T00051003  RH  094%=      5-min Rain = 0
KTR1 130913Z 32007KT 00/M00 A2991 RMK A01 T00041004  RH  094%=      5-min Rain = 0
KTR1 130914Z 32007KT 00/M00 A2991 RMK A01 T00041004  RH  094%=      5-min Rain = 0
KTR1 130915Z 31007KT 00/M00 A2991 RMK A01 T00041003  RH  095%=      5-min Rain = 0
KTR1 130916Z 32006KT 00/M00 A2991 RMK A01 T00041003  RH  095%=      5-min Rain = 0
KTR1 130917Z 32006KT 00/M00 A2991 RMK A01 T00041003  RH  095%=      5-min Rain = 0
KTR1 130918Z 31006KT 01/M00 A2991 RMK A01 T00051003  RH  095%=      5-min Rain = 0
KTR1 130919Z 31005KT 01/M00 A2991 RMK A01 T00051003  RH  095%=      5-min Rain = 0
KTR1 130920Z 31005KT 00/M00 A2991 RMK A01 T00041003  RH  095%=      5-min Rain = 0
KTR1 130926Z 31006KT 01/00 A2991 RMK A01 T00080001  RH  096%=      5-min Rain = 0
KTR1 130927Z 31006KT 01/00 A2991 RMK A01 T00070001  RH  095%=      5-min Rain = 0
KTR1 130928Z 31006KT 01/00 A2991 RMK A01 T00080001  RH  095%=      5-min Rain = 0
KTR1 130929Z 31006KT 01/00 A2991 RMK A01 T00080001  RH  095%=      5-min Rain = 0
KTR1 130930Z 31005KT 01/00 A2991 RMK A01 T00080001  RH  095%=      5-min Rain = 0
KTR1 130931Z 31006KT 01/00 A2991 RMK A01 T00080001  RH  095%=      5-min Rain = 0
KTR1 130932Z 31006KT 01/00 A2991 RMK A01 T00080001  RH  095%=      5-min Rain = 0
KTR1 130933Z 32006KT 01/00 A2991 RMK A01 T00080001  RH  095%=      5-min Rain = 0
KTR1 130934Z 32006KT 01/00 A2991 RMK A01 T00080001  RH  095%=      5-min Rain = 0
KTR1 130935Z 32006KT 01/00 A2991 RMK A01 T00080001  RH  095%=      5-min Rain = 0
KTR1 130936Z 32006KT 01/00 A2991 RMK A01 T00080001  RH  095%=      5-min Rain = 0
KTR1 130937Z 32006KT 01/00 A2991 RMK A01 T00080001  RH  095%=      5-min Rain = 0
KTR1 130938Z 32006KT 01/00 A2991 RMK A01 T00080002  RH  095%=      5-min Rain = 0
KTR1 130939Z 32006KT 01/00 A2991 RMK A01 T00080002  RH  095%=      5-min Rain = 0
KTR1 130940Z 32006KT 01/00 A2991 RMK A01 T00090003  RH  095%=      5-min Rain = 0
KTR1 130941Z 32006KT 01/00 A2991 RMK A01 T00090002  RH  095%=      5-min Rain = 0
KTR1 130942Z 32007KT 01/00 A2991 RMK A01 T00090003  RH  095%=      5-min Rain = 0
KTR1 130943Z 32007KT 01/00 A2991 RMK A01 T00100003  RH  096%=      5-min Rain = 0
KTR1 130944Z 32006KT 01/00 A2991 RMK A01 T00100003  RH  096%=      5-min Rain = 0
KTR1 130945Z 32006KT 01/00 A2991 RMK A01 T00100004  RH  096%=      5-min Rain = 0
KTR1 130946Z 32005KT 01/00 A2991 RMK A01 T00100003  RH  096%=      5-min Rain = 0
KTR1 130947Z 31005KT 01/00 A2991 RMK A01 T00100003  RH  095%=      5-min Rain = 0
KTR1 130948Z 31005KT 01/00 A2991 RMK A01 T00100003  RH  095%=      5-min Rain = 0
KTR1 130949Z 31005KT 01/00 A2991 RMK A01 T00090002  RH  095%=      5-min Rain = 0
KTR1 130950Z 31005KT 01/00 A2991 RMK A01 T00090002  RH  095%=      5-min Rain = 0
KTR1 130951Z 30005KT 01/00 A2991 RMK A01 T00090002  RH  095%=      5-min Rain = 0
KTR1 130952Z 30005KT 01/00 A2991 RMK A01 T00080001  RH  095%=      5-min Rain = 0
KTR1 130953Z 30005KT 01/00 A299 RMK A01 T00080001  RH  095%=      5-min Rain = 0
KTR1 130954Z 31005KT 01/00 A299 RMK A01 T00080001  RH  095%=      5-min Rain = 0
KTR1 130955Z 31005KT 01/00 A299 RMK A01 T00080001  RH  095%=      5-min Rain = 0
KTR1 130956Z 31006KT 01/00 A299 RMK A01 T00080001  RH  095%=      5-min Rain = 0
KTR1 130957Z 32006KT 01/00 A299 RMK A01 T00070001  RH  095%=      5-min Rain = 0
KTR1 130958Z 32006KT 01/00 A299 RMK A01 T00070001  RH  095%=      5-min Rain = 0
KTR1 130959Z 31006KT 01/00 A299 RMK A01 T00070001  RH  095%=      5-min Rain = 0
KTR1 131000Z 31006KT 01/00 A299 RMK A01 T00070000  RH  095%=      5-min Rain = 0
KTR1 131001Z 31006KT 01/00 A299 RMK A01 T000600-0  RH  095%=      5-min Rain = 0
KTR1 131002Z 31006KT 01/M00 A299 RMK A01 T00051002  RH  095%=      5-min Rain = 0
KTR1 131003Z 31006KT 01/M00 A299 RMK A01 T00051002  RH  095%=      5-min Rain = 0
KTR1 131004Z 30006KT 01/M00 A299 RMK A01 T00051002  RH  095%=      5-min Rain = 0
KTR1 131005Z 30006KT 01/M00 A299 RMK A01 T00051001  RH  096%=      5-min Rain = 0
KTR1 131006Z 30007KT 01/00 A299 RMK A01 T000600-0  RH  096%=      5-min Rain = 0
KTR1 131007Z 30007KT 01/00 A299 RMK A01 T00060000  RH  096%=      5-min Rain = 0
KTR1 131008Z 30006KT 01/00 A299 RMK A01 T00060000  RH  096%=      5-min Rain = 0
KTR1 131009Z 30006KT 01/00 A299 RMK A01 T00060001  RH  096%=      5-min Rain = 0
KTR1 131010Z 30007KT 01/00 A299 RMK A01 T00070001  RH  096%=      5-min Rain = 0
KTR1 131011Z 30006KT 01/00 A299 RMK A01 T00070002  RH  096%=      5-min Rain = 0
KTR1 131012Z 30006KT 01/00 A299 RMK A01 T00070002  RH  096%=      5-min Rain = 0
KTR1 131013Z 30006KT 01/00 A299 RMK A01 T00080002  RH  096%=      5-min Rain = 0
KTR1 131014Z 30006KT 01/00 A299 RMK A01 T00080002  RH  096%=      5-min Rain = 0
KTR1 131015Z 30006KT 01/00 A299 RMK A01 T00080002  RH  096%=      5-min Rain = 0
KTR1 131016Z 30006KT 01/00 A299 RMK A01 T00080002  RH  096%=      5-min Rain = 0
KTR1 131017Z 30006KT 01/00 A299 RMK A01 T00080002  RH  096%=      5-min Rain = 0
KTR1 131018Z 30006KT 01/00 A299 RMK A01 T00080002  RH  096%=      5-min Rain = 0
KTR1 131019Z 30006KT 01/00 A299 RMK A01 T00080002  RH  096%=      5-min Rain = 0
KTR1 131020Z 30006KT 01/00 A299 RMK A01 T00080002  RH  096%=      5-min Rain = 0
KTR1 131021Z 30006KT 01/00 A299 RMK A01 T00080002  RH  096%=      5-min Rain = 0
KTR1 131022Z 30006KT 01/00 A299 RMK A01 T00080002  RH  096%=      5-min Rain = 0
KTR1 131023Z 30006KT 01/00 A299 RMK A01 T00080002  RH  095%=      5-min Rain = 0
KTR1 131024Z 30007KT 01/00 A299 RMK A01 T00090002  RH  095%=      5-min Rain = 0
KTR1 131025Z 31006KT 01/00 A299 RMK A01 T00090002  RH  095%=      5-min Rain = 0
KTR1 131026Z 31006KT 01/00 A299 RMK A01 T00080002  RH  095%=      5-min Rain = 0
KTR1 131027Z 31006KT 01/00 A2989 RMK A01 T00090002  RH  095%=      5-min Rain = 0
KTR1 131028Z 31006KT 01/00 A2989 RMK A01 T00080001  RH  095%=      5-min Rain = 0
KTR1 131029Z 32006KT 01/00 A2989 RMK A01 T00080000  RH  095%=      5-min Rain = 0
KTR1 131030Z 32006KT 01/00 A2989 RMK A01 T00080001  RH  095%=      5-min Rain = 0
KTR1 131031Z 32006KT 01/00 A2989 RMK A01 T00080000  RH  095%=      5-min Rain = 0
KTR1 131032Z 32006KT 01/00 A2989 RMK A01 T00070000  RH  095%=      5-min Rain = 0
KTR1 131033Z 32006KT 01/00 A2989 RMK A01 T00070000  RH  095%=      5-min Rain = 0
KTR1 131034Z 32006KT 01/00 A2989 RMK A01 T00070000  RH  095%=      5-min Rain = 0
KTR1 131035Z 32006KT 01/00 A2989 RMK A01 T00070000  RH  095%=      5-min Rain = 0
KTR1 131036Z 32006KT 01/00 A2989 RMK A01 T00070000  RH  095%=      5-min Rain = 0
KTR1 131037Z 32006KT 01/00 A2989 RMK A01 T00070000  RH  095%=      5-min Rain = 0
KTR1 131038Z 31006KT 01/00 A2989 RMK A01 T00070000  RH  095%=      5-min Rain = 0
KTR1 131039Z 31006KT 01/00 A2989 RMK A01 T00070000  RH  095%=      5-min Rain = 0
KTR1 131040Z 31006KT 01/00 A2989 RMK A01 T00070000  RH  095%=      5-min Rain = 0
KTR1 131041Z 31005KT 01/00 A2989 RMK A01 T00070000  RH  095%=      5-min Rain = 0
KTR1 131042Z 31005KT 01/00 A2989 RMK A01 T000700-0  RH  095%=      5-min Rain = 0
KTR1 131043Z 31005KT 01/M00 A2989 RMK A01 T00071001  RH  095%=      5-min Rain = 0
KTR1 131044Z 30005KT 01/M00 A2989 RMK A01 T00071001  RH  095%=      5-min Rain = 0
KTR1 131045Z 30005KT 01/00 A2989 RMK A01 T000700-0  RH  095%=      5-min Rain = 0
KTR1 131046Z 30005KT 01/M00 A2989 RMK A01 T00061001  RH  095%=      5-min Rain = 0
KTR1 131047Z 29005KT 01/M00 A2989 RMK A01 T00061001  RH  095%=      5-min Rain = 0
KTR1 131048Z 29005KT 01/M00 A2989 RMK A01 T00061001  RH  095%=      5-min Rain = 0
KTR1 131049Z 28005KT 01/M00 A2989 RMK A01 T00061001  RH  095%=      5-min Rain = 0
KTR1 131050Z 29004KT 01/M00 A2989 RMK A01 T00051002  RH  095%=      5-min Rain = 0
KTR1 131051Z 29004KT 01/M00 A2989 RMK A01 T00051002  RH  095%=      5-min Rain = 0
KTR1 131052Z 29005KT 01/M00 A2989 RMK A01 T00051002  RH  095%=      5-min Rain = 0
KTR1 131053Z 29005KT 01/M00 A2989 RMK A01 T00051002  RH  095%=      5-min Rain = 0
KTR1 131054Z 29005KT 01/M00 A2989 RMK A01 T00051002  RH  095%=      5-min Rain = 0
KTR1 131055Z 29005KT 01/M00 A2989 RMK A01 T00051002  RH  095%=      5-min Rain = 0
KTR1 131056Z 29005KT 01/M00 A2989 RMK A01 T00051002  RH  095%=      5-min Rain = 0
KTR1 131057Z 29005KT 00/M00 A2989 RMK A01 T00041003  RH  095%=      5-min Rain = 0
KTR1 131058Z 29006KT 00/M00 A299 RMK A01 T00041003  RH  095%=      5-min Rain = 0
KTR1 131059Z 29006KT 00/M00 A299 RMK A01 T00031004  RH  095%=      5-min Rain = 0
KTR1 131100Z 29006KT 00/M00 A299 RMK A01 T00031004  RH  095%=      5-min Rain = 0
KTR1 131101Z 29006KT 00/M00 A299 RMK A01 T00031004  RH  095%=      5-min Rain = 0
KTR1 131102Z 29006KT 00/M00 A299 RMK A01 T00031004  RH  095%=      5-min Rain = 0
KTR1 131103Z 29006KT 00/M00 A299 RMK A01 T00041003  RH  095%=      5-min Rain = 0
KTR1 131104Z 29006KT 00/M00 A299 RMK A01 T00031003  RH  095%=      5-min Rain = 0
KTR1 131105Z 30005KT 00/M00 A299 RMK A01 T00041003  RH  095%=      5-min Rain = 0
KTR1 131106Z 30005KT 00/M00 A299 RMK A01 T00041003  RH  095%=      5-min Rain = 0
KTR1 131107Z 30005KT 00/M00 A299 RMK A01 T00041002  RH  095%=      5-min Rain = 0
KTR1 131108Z 30005KT 01/M00 A2989 RMK A01 T00051002  RH  095%=      5-min Rain = 0
KTR1 131109Z 30005KT 01/M00 A2989 RMK A01 T00051002  RH  095%=      5-min Rain = 0
KTR1 131110Z 30006KT 01/M00 A2989 RMK A01 T00051002  RH  095%=      5-min Rain = 0
KTR1 131111Z 30006KT 01/M00 A2989 RMK A01 T00051002  RH  095%=      5-min Rain = 0
KTR1 131112Z 30006KT 01/M00 A299 RMK A01 T00051002  RH  095%=      5-min Rain = 0
KTR1 131113Z 30006KT 01/M00 A299 RMK A01 T00051002  RH  095%=      5-min Rain = 0
KTR1 131114Z 30007KT 01/M00 A299 RMK A01 T00051001  RH  095%=      5-min Rain = 0
KTR1 131115Z 30006KT 01/M00 A299 RMK A01 T00061001  RH  095%=      5-min Rain = 0
KTR1 131116Z 30006KT 01/00 A299 RMK A01 T000600-0  RH  095%=      5-min Rain = 0
KTR1 131117Z 30006KT 01/00 A299 RMK A01 T00070000  RH  095%=      5-min Rain = 0
KTR1 131118Z 30006KT 01/00 A299 RMK A01 T000700-0  RH  095%=      5-min Rain = 0
KTR1 131119Z 31007KT 01/00 A299 RMK A01 T000700-0  RH  095%=      5-min Rain = 0
KTR1 131120Z 31006KT 01/M00 A299 RMK A01 T00061001  RH  095%=      5-min Rain = 0
KTR1 131121Z 31007KT 01/M00 A299 RMK A01 T00061001  RH  095%=      5-min Rain = 0
KTR1 131122Z 31007KT 01/M00 A299 RMK A01 T00061001  RH  095%=      5-min Rain = 0
KTR1 131123Z 31006KT 01/M00 A299 RMK A01 T00061001  RH  095%=      5-min Rain = 0
KTR1 131124Z 31006KT 01/M00 A299 RMK A01 T00061001  RH  095%=      5-min Rain = 0
KTR1 131125Z 31006KT 01/00 A299 RMK A01 T000600-0  RH  095%=      5-min Rain = 0
KTR1 131126Z 31007KT 01/M00 A299 RMK A01 T00061001  RH  095%=      5-min Rain = 0
KTR1 131127Z 31006KT 01/M00 A299 RMK A01 T00061001  RH  095%=      5-min Rain = 0
KTR1 131128Z 31006KT 01/00 A299 RMK A01 T000600-0  RH  095%=      5-min Rain = 0
KTR1 131129Z 31006KT 01/00 A299 RMK A01 T000600-0  RH  095%=      5-min Rain = 0
KTR1 131130Z 31006KT 01/00 A299 RMK A01 T000700-0  RH  095%=      5-min Rain = 0
KTR1 131131Z 31006KT 01/00 A299 RMK A01 T000600-0  RH  095%=      5-min Rain = 0
KTR1 131132Z 31006KT 01/00 A299 RMK A01 T000600-0  RH  095%=      5-min Rain = 0
KTR1 131133Z 31007KT 01/00 A299 RMK A01 T000600-0  RH  095%=      5-min Rain = 0
KTR1 131134Z 31006KT 01/M00 A299 RMK A01 T00061001  RH  095%=      5-min Rain = 0
KTR1 131135Z 31006KT 01/00 A299 RMK A01 T000600-0  RH  095%=      5-min Rain = 0
KTR1 131136Z 31006KT 01/00 A299 RMK A01 T000600-0  RH  095%=      5-min Rain = 0
KTR1 131137Z 31006KT 01/00 A2989 RMK A01 T000600-0  RH  095%=      5-min Rain = 0
KTR1 131138Z 31006KT 01/00 A2989 RMK A01 T000600-0  RH  095%=      5-min Rain = 0
KTR1 131139Z 31006KT 01/M00 A2989 RMK A01 T00061001  RH  095%=      5-min Rain = 0
KTR1 131140Z 31006KT 01/M00 A2989 RMK A01 T00061001  RH  095%=      5-min Rain = 0
KTR1 131141Z 30007KT 01/00 A2989 RMK A01 T00070000  RH  095%=      5-min Rain = 0
KTR1 131142Z 30007KT 01/00 A2989 RMK A01 T00070000  RH  095%=      5-min Rain = 0
KTR1 131143Z 30007KT 01/00 A2989 RMK A01 T00070000  RH  095%=      5-min Rain = 0
KTR1 131144Z 30007KT 01/00 A2989 RMK A01 T00070000  RH  095%=      5-min Rain = 0
KTR1 131145Z 30008KT 01/00 A2989 RMK A01 T00070000  RH  095%=      5-min Rain = 0
KTR1 131146Z 30008KT 01/00 A2989 RMK A01 T00070000  RH  095%=      5-min Rain = 0
KTR1 131147Z 30007KT 01/00 A2989 RMK A01 T000700-0  RH  095%=      5-min Rain = 0
KTR1 131148Z 30007KT 01/00 A2989 RMK A01 T00070000  RH  095%=      5-min Rain = 0
KTR1 131149Z 30007KT 01/00 A2989 RMK A01 T00070000  RH  095%=      5-min Rain = 0
KTR1 131150Z 30006KT 01/00 A2989 RMK A01 T00070000  RH  095%=      5-min Rain = 0
KTR1 131151Z 30006KT 01/00 A2989 RMK A01 T00070000  RH  095%=      5-min Rain = 0
KTR1 131152Z 30007KT 01/00 A2989 RMK A01 T000700-0  RH  095%=      5-min Rain = 0
KTR1 131153Z 30006KT 01/00 A299 RMK A01 T000700-0  RH  095%=      5-min Rain = 0
KTR1 131154Z 30006KT 01/00 A299 RMK A01 T00070000  RH  095%=      5-min Rain = 0
KTR1 131155Z 31006KT 01/00 A299 RMK A01 T000700-0  RH  095%=      5-min Rain = 0
KTR1 131156Z 31006KT 01/M00 A299 RMK A01 T00061001  RH  095%=      5-min Rain = 0
KTR1 131157Z 31006KT 01/M00 A299 RMK A01 T00061001  RH  095%=      5-min Rain = 0
KTR1 131158Z 31006KT 01/M00 A299 RMK A01 T00061001  RH  095%=      5-min Rain = 0
KTR1 131159Z 31006KT 01/M00 A299 RMK A01 T00061001  RH  095%=      5-min Rain = 0
KTR1 131200Z 31006KT 01/M00 A299 RMK A01 T00061001  RH  095%=      5-min Rain = 0
KTR1 131201Z 31006KT 01/M00 A299 RMK A01 T00061001  RH  096%=      5-min Rain = 0
KTR1 131202Z 32005KT 01/M00 A299 RMK A01 T00061001  RH  096%=      5-min Rain = 0
KTR1 131203Z 31006KT 01/00 A299 RMK A01 T00060000  RH  096%=      5-min Rain = 0
KTR1 131204Z 31006KT 01/00 A299 RMK A01 T00070001  RH  096%=      5-min Rain = 0
KTR1 131205Z 31005KT 01/00 A299 RMK A01 T00070001  RH  096%=      5-min Rain = 0
KTR1 131206Z 31005KT 01/00 A299 RMK A01 T00070002  RH  096%=      5-min Rain = 0
KTR1 131207Z 31005KT 01/00 A299 RMK A01 T00080002  RH  096%=      5-min Rain = 0
KTR1 131208Z 31006KT 01/00 A299 RMK A01 T00080002  RH  096%=      5-min Rain = 0
KTR1 131209Z 31007KT 01/00 A299 RMK A01 T00080002  RH  096%=      5-min Rain = 0
KTR1 131210Z 31007KT 01/00 A299 RMK A01 T00090002  RH  096%=      5-min Rain = 0
KTR1 131211Z 31007KT 01/00 A299 RMK A01 T00100004  RH  096%=      5-min Rain = 0
KTR1 131212Z 31007KT 01/00 A299 RMK A01 T00100004  RH  096%=      5-min Rain = 0
KTR1 131213Z 31007KT 01/00 A299 RMK A01 T00100003  RH  095%=      5-min Rain = 0
KTR1 131214Z 31007KT 01/00 A299 RMK A01 T00100004  RH  095%=      5-min Rain = 0
KTR1 131215Z 31007KT 01/00 A299 RMK A01 T00100004  RH  095%=      5-min Rain = 0
KTR1 131216Z 31008KT 01/00 A2991 RMK A01 T00110004  RH  095%=      5-min Rain = 0
KTR1 131217Z 31008KT 01/00 A299 RMK A01 T00110004  RH  095%=      5-min Rain = 0
KTR1 131218Z 31008KT 01/00 A299 RMK A01 T00110004  RH  095%=      5-min Rain = 0
KTR1 131219Z 31008KT 01/00 A299 RMK A01 T00110004  RH  095%=      5-min Rain = 0
KTR1 131220Z 31007KT 01/00 A299 RMK A01 T00110003  RH  095%=      5-min Rain = 0
KTR1 131221Z 32008KT 01/00 A299 RMK A01 T00110004  RH  095%=      5-min Rain = 0
KTR1 131222Z 32008KT 01/00 A299 RMK A01 T00110003  RH  095%=      5-min Rain = 0
KTR1 131223Z 32007KT 01/00 A299 RMK A01 T00110003  RH  095%=      5-min Rain = 0
KTR1 131224Z 32008KT 01/00 A299 RMK A01 T00110004  RH  095%=      5-min Rain = 0
KTR1 131225Z 32008KT 01/00 A299 RMK A01 T00110004  RH  095%=      5-min Rain = 0
KTR1 131226Z 32008KT 01/00 A299 RMK A01 T00110004  RH  095%=      5-min Rain = 0
KTR1 131227Z 32008KT 01/00 A299 RMK A01 T00110004  RH  095%=      5-min Rain = 0
KTR1 131228Z 32008KT 01/00 A299 RMK A01 T00110003  RH  095%=      5-min Rain = 0
KTR1 131229Z 32008KT 01/00 A299 RMK A01 T00110004  RH  095%=      5-min Rain = 0
KTR1 131230Z 32009KT 01/00 A299 RMK A01 T00110004  RH  095%=      5-min Rain = 0
KTR1 131231Z 32009KT 01/00 A299 RMK A01 T00110004  RH  095%=      5-min Rain = 0
KTR1 131232Z 32009KT 01/01 A299 RMK A01 T00110005  RH  095%=      5-min Rain = 0
KTR1 131233Z 32009KT 01/00 A299 RMK A01 T00110004  RH  095%=      5-min Rain = 0
KTR1 131234Z 32008KT 01/00 A299 RMK A01 T00110004  RH  095%=      5-min Rain = 0
KTR1 131235Z 32008KT 01/00 A299 RMK A01 T00110004  RH  095%=      5-min Rain = 0
KTR1 131236Z 32008KT 01/00 A299 RMK A01 T00110004  RH  095%=      5-min Rain = 0
KTR1 131237Z 32008KT 01/01 A299 RMK A01 T00110005  RH  095%=      5-min Rain = 0
KTR1 131238Z 32008KT 01/00 A299 RMK A01 T00110004  RH  095%=      5-min Rain = 0
KTR1 131239Z 32008KT 01/00 A299 RMK A01 T00110004  RH  095%=      5-min Rain = 0
KTR1 131240Z 32008KT 01/00 A299 RMK A01 T00110004  RH  095%=      5-min Rain = 0
KTR1 131241Z 32008KT 01/00 A299 RMK A01 T00110004  RH  095%=      5-min Rain = 0
KTR1 131242Z 32008KT 01/00 A299 RMK A01 T00110004  RH  095%=      5-min Rain = 0
KTR1 131243Z 32008KT 01/00 A299 RMK A01 T00100003  RH  095%=      5-min Rain = 0
KTR1 131244Z 32008KT 01/00 A2991 RMK A01 T00100004  RH  095%=      5-min Rain = 0
KTR1 131245Z 32008KT 01/00 A2991 RMK A01 T00100003  RH  095%=      5-min Rain = 0
KTR1 131246Z 31008KT 01/00 A2991 RMK A01 T00100003  RH  095%=      5-min Rain = 0
KTR1 131247Z 31008KT 01/00 A2991 RMK A01 T00100003  RH  095%=      5-min Rain = 0
KTR1 131248Z 31008KT 01/00 A2991 RMK A01 T00100003  RH  095%=      5-min Rain = 0
KTR1 131249Z 32008KT 01/00 A2991 RMK A01 T00100003  RH  095%=      5-min Rain = 0
KTR1 131250Z 32008KT 01/00 A2991 RMK A01 T00100003  RH  095%=      5-min Rain = 0
KTR1 131251Z 31008KT 01/00 A2991 RMK A01 T00100004  RH  096%=      5-min Rain = 0
KTR1 131252Z 31008KT 01/00 A2991 RMK A01 T00100004  RH  096%=      5-min Rain = 0
KTR1 131253Z 31008KT 01/00 A2991 RMK A01 T00110004  RH  096%=      5-min Rain = 0
KTR1 131254Z 31008KT 01/00 A2991 RMK A01 T00110004  RH  095%=      5-min Rain = 0
KTR1 131255Z 31008KT 01/00 A2991 RMK A01 T00110004  RH  095%=      5-min Rain = 0
KTR1 131256Z 31008KT 01/00 A2991 RMK A01 T00110004  RH  095%=      5-min Rain = 0
KTR1 131257Z 31008KT 01/00 A2991 RMK A01 T00110004  RH  095%=      5-min Rain = 0
KTR1 131258Z 31008KT 01/00 A2991 RMK A01 T00110004  RH  095%=      5-min Rain = 0
KTR1 131259Z 31007KT 01/00 A2991 RMK A01 T00110004  RH  095%=      5-min Rain = 0
KTR1 131300Z 31008KT 01/00 A2991 RMK A01 T00110004  RH  095%=      5-min Rain = 0
KTR1 131301Z 31008KT 01/00 A2991 RMK A01 T00110004  RH  095%=      5-min Rain = 0
KTR1 131302Z 31008KT 01/00 A2991 RMK A01 T00110004  RH  095%=      5-min Rain = 0
KTR1 131303Z 31007KT 01/00 A2991 RMK A01 T00110004  RH  095%=      5-min Rain = 0
KTR1 131304Z 31007KT 01/00 A2991 RMK A01 T00110004  RH  095%=      5-min Rain = 0
KTR1 131305Z 31008KT 01/00 A2992 RMK A01 T00110004  RH  095%=      5-min Rain = 0
KTR1 131306Z 31007KT 01/00 A2992 RMK A01 T00110004  RH  095%=      5-min Rain = 0
KTR1 131307Z 31007KT 01/00 A2992 RMK A01 T00110004  RH  095%=      5-min Rain = 0
KTR1 131308Z 31007KT 01/00 A2992 RMK A01 T00110004  RH  095%=      5-min Rain = 0
KTR1 131309Z 31008KT 01/00 A2992 RMK A01 T00110004  RH  095%=      5-min Rain = 0
KTR1 131310Z 31008KT 01/01 A2992 RMK A01 T00120005  RH  095%=      5-min Rain = 0
KTR1 131311Z 30008KT 01/01 A2992 RMK A01 T00120005  RH  095%=      5-min Rain = 0
KTR1 131312Z 30008KT 01/01 A2991 RMK A01 T00130005  RH  095%=      5-min Rain = 0
KTR1 131313Z 30008KT 01/01 A2991 RMK A01 T00130005  RH  094%=      5-min Rain = 0
KTR1 131314Z 31007KT 01/00 A2991 RMK A01 T00120004  RH  094%=      5-min Rain = 0
KTR1 131315Z 31008KT 01/00 A2991 RMK A01 T00120004  RH  094%=      5-min Rain = 0
KTR1 131316Z 31008KT 01/00 A2991 RMK A01 T00120004  RH  095%=      5-min Rain = 0
KTR1 131317Z 31007KT 01/00 A2991 RMK A01 T00110003  RH  094%=      5-min Rain = 0
KTR1 131318Z 31008KT 01/00 A2991 RMK A01 T00110003  RH  094%=      5-min Rain = 0
KTR1 131319Z 31007KT 01/00 A2991 RMK A01 T00110003  RH  094%=      5-min Rain = 0
KTR1 131320Z 31008KT 01/00 A2991 RMK A01 T00110003  RH  095%=      5-min Rain = 0
KTR1 131321Z 31007KT 01/00 A2991 RMK A01 T00110003  RH  095%=      5-min Rain = 0
KTR1 131322Z 31007KT 01/00 A2991 RMK A01 T00110003  RH  095%=      5-min Rain = 0
KTR1 131323Z 31007KT 01/00 A2991 RMK A01 T00110003  RH  095%=      5-min Rain = 0
KTR1 131324Z 31007KT 01/00 A2991 RMK A01 T00100003  RH  094%=      5-min Rain = 0
KTR1 131325Z 31007KT 01/00 A2991 RMK A01 T00100002  RH  094%=      5-min Rain = 0
KTR1 131326Z 31008KT 01/00 A2991 RMK A01 T00100002  RH  095%=      5-min Rain = 0
KTR1 131327Z 31007KT 01/00 A2991 RMK A01 T00100002  RH  095%=      5-min Rain = 0
KTR1 131328Z 31007KT 01/00 A2991 RMK A01 T00100002  RH  095%=      5-min Rain = 0
KTR1 131329Z 31008KT 01/00 A2991 RMK A01 T00090002  RH  095%=      5-min Rain = 0
KTR1 131330Z 31008KT 01/00 A2991 RMK A01 T00090002  RH  095%=      5-min Rain = 0
KTR1 131331Z 31007KT 01/00 A2991 RMK A01 T00090002  RH  095%=      5-min Rain = 0
KTR1 131332Z 31008KT 01/00 A2991 RMK A01 T00100002  RH  095%=      5-min Rain = 0
KTR1 131333Z 31008KT 01/00 A2991 RMK A01 T00100002  RH  095%=      5-min Rain = 0
KTR1 131334Z 31007KT 01/00 A2991 RMK A01 T00090002  RH  095%=      5-min Rain = 0
KTR1 131335Z 31008KT 01/00 A2991 RMK A01 T00100002  RH  095%=      5-min Rain = 0
KTR1 131336Z 31008KT 01/00 A2991 RMK A01 T00090002  RH  095%=      5-min Rain = 0
KTR1 131337Z 31007KT 01/00 A2991 RMK A01 T00090002  RH  095%=      5-min Rain = 0
KTR1 131338Z 31008KT 01/00 A2991 RMK A01 T00090002  RH  095%=      5-min Rain = 0
KTR1 131339Z 31007KT 01/00 A2991 RMK A01 T00090002  RH  095%=      5-min Rain = 0
KTR1 131340Z 31007KT 01/00 A2991 RMK A01 T00090002  RH  095%=      5-min Rain = 0
KTR1 131341Z 31007KT 01/00 A2991 RMK A01 T00090001  RH  094%=      5-min Rain = 0
KTR1 131342Z 31007KT 01/00 A2991 RMK A01 T00090001  RH  095%=      5-min Rain = 0
KTR1 131343Z 31008KT 01/00 A2991 RMK A01 T00090001  RH  095%=      5-min Rain = 0
KTR1 131344Z 31007KT 01/00 A2991 RMK A01 T00090001  RH  094%=      5-min Rain = 0
KTR1 131345Z 31008KT 01/00 A2991 RMK A01 T00090001  RH  094%=      5-min Rain = 0
KTR1 131346Z 31007KT 01/00 A2991 RMK A01 T00090001  RH  094%=      5-min Rain = 0
KTR1 131347Z 31008KT 01/00 A2991 RMK A01 T00090001  RH  094%=      5-min Rain = 0
KTR1 131348Z 31008KT 01/00 A2991 RMK A01 T00080000  RH  094%=      5-min Rain = 0
KTR1 131349Z 31007KT 01/00 A2991 RMK A01 T00080000  RH  094%=      5-min Rain = 0
KTR1 131350Z 31007KT 01/00 A2991 RMK A01 T00080000  RH  094%=      5-min Rain = 0
KTR1 131351Z 31007KT 01/00 A2991 RMK A01 T00080001  RH  095%=      5-min Rain = 0
KTR1 131352Z 30008KT 01/00 A2991 RMK A01 T00080001  RH  095%=      5-min Rain = 0
KTR1 131353Z 30008KT 01/00 A2991 RMK A01 T00090001  RH  095%=      5-min Rain = 0
KTR1 131354Z 30008KT 01/00 A2991 RMK A01 T00090001  RH  094%=      5-min Rain = 0
KTR1 131355Z 30008KT 01/00 A2991 RMK A01 T00090001  RH  094%=      5-min Rain = 0
KTR1 131356Z 30008KT 01/00 A2991 RMK A01 T00090001  RH  094%=      5-min Rain = 0
KTR1 131357Z 30008KT 01/00 A2991 RMK A01 T00090001  RH  094%=      5-min Rain = 0
KTR1 131358Z 30008KT 01/00 A2991 RMK A01 T00090001  RH  094%=      5-min Rain = 0
KTR1 131359Z 30007KT 01/00 A2991 RMK A01 T00100002  RH  094%=      5-min Rain = 0
KTR1 131400Z 30007KT 01/00 A2991 RMK A01 T00100002  RH  094%=      5-min Rain = 0
KTR1 131401Z 30007KT 01/00 A2991 RMK A01 T00110002  RH  094%=      5-min Rain = 0
KTR1 131402Z 30007KT 01/00 A2991 RMK A01 T00110003  RH  094%=      5-min Rain = 0
KTR1 131403Z 30007KT 01/00 A2991 RMK A01 T00110003  RH  094%=      5-min Rain = 0
KTR1 131404Z 30007KT 01/00 A2991 RMK A01 T00120003  RH  094%=      5-min Rain = 0
KTR1 131405Z 31007KT 01/00 A2991 RMK A01 T00120003  RH  094%=      5-min Rain = 0
KTR1 131406Z 31007KT 01/00 A2991 RMK A01 T00130004  RH  094%=      5-min Rain = 0
KTR1 131407Z 31006KT 01/00 A2991 RMK A01 T00130004  RH  094%=      5-min Rain = 0
KTR1 131408Z 31006KT 01/00 A2991 RMK A01 T00140004  RH  094%=      5-min Rain = 0
KTR1 131409Z 31007KT 01/00 A2991 RMK A01 T00140004  RH  093%=      5-min Rain = 0
KTR1 131410Z 31007KT 02/01 A2991 RMK A01 T00150005  RH  093%=      5-min Rain = 0
KTR1 131411Z 30007KT 02/01 A2991 RMK A01 T00150005  RH  093%=      5-min Rain = 0
KTR1 131412Z 31007KT 02/01 A2991 RMK A01 T00160006  RH  093%=      5-min Rain = 0
KTR1 131413Z 30007KT 02/01 A2991 RMK A01 T00160006  RH  093%=      5-min Rain = 0
KTR1 131414Z 30007KT 02/01 A2991 RMK A01 T00170006  RH  093%=      5-min Rain = 0
KTR1 131415Z 30007KT 02/01 A2991 RMK A01 T00170007  RH  093%=      5-min Rain = 0
KTR1 131416Z 30007KT 02/01 A2991 RMK A01 T00180007  RH  092%=      5-min Rain = 0
KTR1 131417Z 31006KT 02/01 A2991 RMK A01 T00190007  RH  092%=      5-min Rain = 0
KTR1 131418Z 31006KT 02/01 A2991 RMK A01 T00190008  RH  092%=      5-min Rain = 0
KTR1 131419Z 31006KT 02/01 A2991 RMK A01 T00200008  RH  092%=      5-min Rain = 0
KTR1 131420Z 31006KT 02/01 A2991 RMK A01 T00200008  RH  092%=      5-min Rain = 0
KTR1 131421Z 31005KT 02/01 A2991 RMK A01 T00210008  RH  092%=      5-min Rain = 0
KTR1 131422Z 31005KT 02/01 A2991 RMK A01 T00210009  RH  092%=      5-min Rain = 0
KTR1 131423Z 31005KT 02/01 A2991 RMK A01 T00210009  RH  092%=      5-min Rain = 0
KTR1 131424Z 31004KT 02/01 A2991 RMK A01 T00220010  RH  092%=      5-min Rain = 0
KTR1 131425Z 31004KT 02/01 A2991 RMK A01 T00220010  RH  091%=      5-min Rain = 0
KTR1 131426Z 32004KT 02/01 A2991 RMK A01 T00230010  RH  091%=      5-min Rain = 0
KTR1 131427Z 32003KT 02/01 A2991 RMK A01 T00240011  RH  091%=      5-min Rain = 0
KTR1 131428Z 33002KT 02/01 A2991 RMK A01 T00240012  RH  091%=      5-min Rain = 0
KTR1 131429Z 33002KT 03/01 A2991 RMK A01 T00250013  RH  092%=      5-min Rain = 0
KTR1 131430Z 32002KT 03/01 A2991 RMK A01 T00260014  RH  092%=      5-min Rain = 0
KTR1 131431Z 32004KT 03/01 A2991 RMK A01 T00270014  RH  091%=      5-min Rain = 0
KTR1 131432Z 33004KT 03/01 A2991 RMK A01 T00280014  RH  091%=      5-min Rain = 0
KTR1 131433Z 33004KT 03/01 A2991 RMK A01 T00280014  RH  090%=      5-min Rain = 0
KTR1 131434Z 34003KT 03/01 A2991 RMK A01 T00280014  RH  090%=      5-min Rain = 0
KTR1 131435Z 33004KT 03/02 A2992 RMK A01 T00290015  RH  090%=      5-min Rain = 0
KTR1 131436Z 32004KT 03/02 A2992 RMK A01 T00290015  RH  090%=      5-min Rain = 0
KTR1 131437Z 32003KT 03/02 A2992 RMK A01 T00300015  RH  090%=      5-min Rain = 0
KTR1 131438Z 33002KT 03/02 A2992 RMK A01 T00300015  RH  090%=      5-min Rain = 0
KTR1 131439Z 32003KT 03/02 A2992 RMK A01 T00310016  RH  090%=      5-min Rain = 0
KTR1 131440Z 32003KT 03/02 A2992 RMK A01 T00320017  RH  090%=      5-min Rain = 0
KTR1 131441Z 33004KT 03/02 A2992 RMK A01 T00330018  RH  090%=      5-min Rain = 0
KTR1 131442Z 33005KT 03/02 A2992 RMK A01 T00330018  RH  090%=      5-min Rain = 0
KTR1 131443Z 33005KT 03/02 A2992 RMK A01 T00340018  RH  089%=      5-min Rain = 0
KTR1 131444Z 32006KT 03/02 A2992 RMK A01 T00340017  RH  089%=      5-min Rain = 0
KTR1 131445Z 32005KT 03/02 A2992 RMK A01 T00340018  RH  089%=      5-min Rain = 0
KTR1 131446Z 32007KT 04/02 A2992 RMK A01 T00350019  RH  089%=      5-min Rain = 0
KTR1 131447Z 33005KT 04/02 A2992 RMK A01 T00350018  RH  088%=      5-min Rain = 0
KTR1 131448Z 32004KT 04/02 A2992 RMK A01 T00360019  RH  089%=      5-min Rain = 0
KTR1 131449Z 32006KT 04/02 A2992 RMK A01 T00360019  RH  089%=      5-min Rain = 0
KTR1 131450Z 31006KT 04/02 A2992 RMK A01 T00370020  RH  089%=      5-min Rain = 0
KTR1 131451Z 31006KT 04/02 A2992 RMK A01 T00370019  RH  088%=      5-min Rain = 0
KTR1 131452Z 31005KT 04/02 A2992 RMK A01 T00380019  RH  088%=      5-min Rain = 0
KTR1 131453Z 31005KT 04/02 A2992 RMK A01 T00380020  RH  088%=      5-min Rain = 0
KTR1 131454Z 31006KT 04/02 A2992 RMK A01 T00390020  RH  088%=      5-min Rain = 0
KTR1 131455Z 31006KT 04/02 A2992 RMK A01 T00400021  RH  087%=      5-min Rain = 0
KTR1 131456Z 31005KT 04/02 A2992 RMK A01 T00410021  RH  087%=      5-min Rain = 0
KTR1 131457Z 31006KT 04/02 A2992 RMK A01 T00420022  RH  087%=      5-min Rain = 0
KTR1 131458Z 30006KT 04/02 A2992 RMK A01 T00430023  RH  087%=      5-min Rain = 0
KTR1 131459Z 31005KT 04/02 A2992 RMK A01 T00430022  RH  086%=      5-min Rain = 0
KTR1 131500Z 30005KT 04/02 A2992 RMK A01 T00440023  RH  087%=      5-min Rain = 0
KTR1 131501Z 30006KT 04/02 A2992 RMK A01 T00440023  RH  086%=      5-min Rain = 0
KTR1 131502Z 31007KT 04/02 A2992 RMK A01 T00440022  RH  086%=      5-min Rain = 0
KTR1 131503Z 31006KT 05/02 A2992 RMK A01 T00450022  RH  085%=      5-min Rain = 0
KTR1 131504Z 31005KT 05/02 A2993 RMK A01 T00450023  RH  086%=      5-min Rain = 0
KTR1 131505Z 30006KT 05/02 A2993 RMK A01 T00460024  RH  085%=      5-min Rain = 0
KTR1 131506Z 30005KT 05/02 A2993 RMK A01 T00470024  RH  085%=      5-min Rain = 0
KTR1 131507Z 30004KT 05/03 A2993 RMK A01 T00480027  RH  086%=      5-min Rain = 0
KTR1 131508Z 29005KT 05/03 A2992 RMK A01 T00500028  RH  086%=      5-min Rain = 0
KTR1 131509Z 29006KT 05/03 A2992 RMK A01 T00500027  RH  085%=      5-min Rain = 0
KTR1 131510Z 29007KT 05/03 A2992 RMK A01 T00500025  RH  084%=      5-min Rain = 0
KTR1 131511Z 29006KT 05/02 A2992 RMK A01 T00500024  RH  084%=      5-min Rain = 0
KTR1 131512Z 29005KT 05/03 A2992 RMK A01 T00500025  RH  084%=      5-min Rain = 0
KTR1 131513Z 30006KT 05/02 A2993 RMK A01 T00490024  RH  084%=      5-min Rain = 0
KTR1 131514Z 29005KT 05/03 A2993 RMK A01 T00490025  RH  084%=      5-min Rain = 0
KTR1 131515Z 29005KT 05/03 A2993 RMK A01 T00500026  RH  085%=      5-min Rain = 0
KTR1 131516Z 29006KT 05/03 A2993 RMK A01 T00520028  RH  084%=      5-min Rain = 0
KTR1 131517Z 30005KT 05/03 A2993 RMK A01 T00520025  RH  083%=      5-min Rain = 0
KTR1 131518Z 30005KT 05/03 A2992 RMK A01 T00520025  RH  083%=      5-min Rain = 0
KTR1 131519Z 29005KT 05/03 A2992 RMK A01 T00530027  RH  084%=      5-min Rain = 0
KTR1 131520Z 29006KT 05/03 A2993 RMK A01 T00530026  RH  083%=      5-min Rain = 0
KTR1 131521Z 29006KT 05/03 A2993 RMK A01 T00530025  RH  082%=      5-min Rain = 0
KTR1 131522Z 30005KT 05/03 A2993 RMK A01 T00530026  RH  083%=      5-min Rain = 0
KTR1 131523Z 30005KT 05/03 A2993 RMK A01 T00540027  RH  083%=      5-min Rain = 0
KTR1 131524Z 30004KT 06/03 A2993 RMK A01 T00550029  RH  083%=      5-min Rain = 0
KTR1 131525Z 30004KT 06/03 A2993 RMK A01 T00560029  RH  083%=      5-min Rain = 0
KTR1 131526Z 31005KT 06/03 A2993 RMK A01 T00580029  RH  082%=      5-min Rain = 0
KTR1 131527Z 31005KT 06/03 A2993 RMK A01 T00580029  RH  082%=      5-min Rain = 0
KTR1 131528Z 31005KT 06/03 A2993 RMK A01 T00580028  RH  081%=      5-min Rain = 0
KTR1 131529Z 31005KT 06/03 A2993 RMK A01 T00580029  RH  081%=      5-min Rain = 0
KTR1 131530Z 32005KT 06/03 A2993 RMK A01 T00590030  RH  081%=      5-min Rain = 0
KTR1 131531Z 31005KT 06/03 A2993 RMK A01 T00600029  RH  081%=      5-min Rain = 0
KTR1 131532Z 31004KT 06/03 A2994 RMK A01 T00600029  RH  080%=      5-min Rain = 0
KTR1 131533Z 30005KT 06/03 A2994 RMK A01 T00610029  RH  080%=      5-min Rain = 0
KTR1 131534Z 31004KT 06/03 A2994 RMK A01 T00610031  RH  081%=      5-min Rain = 0
KTR1 131535Z 32006KT 06/03 A2994 RMK A01 T00630032  RH  081%=      5-min Rain = 0
KTR1 131536Z 31005KT 06/03 A2994 RMK A01 T00640031  RH  079%=      5-min Rain = 0
KTR1 131537Z 30005KT 07/03 A2994 RMK A01 T00650032  RH  079%=      5-min Rain = 0
KTR1 131538Z 31006KT 07/03 A2994 RMK A01 T00650031  RH  079%=      5-min Rain = 0
KTR1 131539Z 31006KT 07/03 A2994 RMK A01 T00660033  RH  080%=      5-min Rain = 0
KTR1 131540Z 30004KT 07/03 A2995 RMK A01 T00670034  RH  079%=      5-min Rain = 0
KTR1 131541Z 31006KT 07/04 A2995 RMK A01 T00690035  RH  079%=      5-min Rain = 0
KTR1 131542Z 31006KT 07/03 A2995 RMK A01 T00690033  RH  077%=      5-min Rain = 0
KTR1 131543Z 30005KT 07/03 A2995 RMK A01 T00690032  RH  077%=      5-min Rain = 0
KTR1 131544Z 30005KT 07/03 A2995 RMK A01 T00690033  RH  078%=      5-min Rain = 0
KTR1 131545Z 31006KT 07/03 A2995 RMK A01 T00690034  RH  078%=      5-min Rain = 0
KTR1 131546Z 32006KT 07/03 A2995 RMK A01 T00700034  RH  077%=      5-min Rain = 0
KTR1 131547Z 31007KT 07/03 A2995 RMK A01 T00710034  RH  077%=      5-min Rain = 0
KTR1 131548Z 31006KT 07/03 A2995 RMK A01 T00720034  RH  077%=      5-min Rain = 0
KTR1 131549Z 31006KT 07/03 A2995 RMK A01 T00730034  RH  077%=      5-min Rain = 0
KTR1 131550Z 31005KT 07/04 A2995 RMK A01 T00740035  RH  076%=      5-min Rain = 0
KTR1 131551Z 31004KT 08/04 A2995 RMK A01 T00750037  RH  077%=      5-min Rain = 0
KTR1 131552Z 32005KT 08/04 A2995 RMK A01 T00760038  RH  077%=      5-min Rain = 0
KTR1 131553Z 32004KT 08/04 A2995 RMK A01 T00780037  RH  075%=      5-min Rain = 0
KTR1 131554Z 31005KT 08/04 A2995 RMK A01 T00790038  RH  075%=      5-min Rain = 0
KTR1 131555Z 32006KT 08/04 A2995 RMK A01 T00790035  RH  074%=      5-min Rain = 0
KTR1 131556Z 32005KT 08/03 A2994 RMK A01 T00770034  RH  074%=      5-min Rain = 0
KTR1 131557Z 31005KT 08/03 A2994 RMK A01 T00770034  RH  074%=      5-min Rain = 0
KTR1 131558Z 30005KT 08/04 A2994 RMK A01 T00770036  RH  075%=      5-min Rain = 0
KTR1 131559Z 31004KT 08/04 A2994 RMK A01 T00780040  RH  077%=      5-min Rain = 0
KTR1 131600Z 31005KT 08/04 A2994 RMK A01 T00810041  RH  076%=      5-min Rain = 0
KTR1 131601Z 31006KT 08/04 A2994 RMK A01 T00830039  RH  074%=      5-min Rain = 0
KTR1 131602Z 31005KT 08/04 A2994 RMK A01 T00830039  RH  074%=      5-min Rain = 0
KTR1 131603Z 32005KT 08/04 A2994 RMK A01 T00830038  RH  074%=      5-min Rain = 0
KTR1 131604Z 32006KT 08/04 A2994 RMK A01 T00830038  RH  073%=      5-min Rain = 0
KTR1 131605Z 32005KT 08/04 A2994 RMK A01 T00830039  RH  074%=      5-min Rain = 0
KTR1 131606Z 32005KT 08/04 A2994 RMK A01 T00840036  RH  072%=      5-min Rain = 0
KTR1 131607Z 32005KT 08/04 A2994 RMK A01 T00830037  RH  073%=      5-min Rain = 0
KTR1 131608Z 32005KT 08/04 A2994 RMK A01 T00830037  RH  073%=      5-min Rain = 0
KTR1 131609Z 32005KT 08/04 A2994 RMK A01 T00840038  RH  073%=      5-min Rain = 0
KTR1 131610Z 32004KT 09/04 A2994 RMK A01 T00850038  RH  072%=      5-min Rain = 0
KTR1 131611Z 32003KT 09/04 A2994 RMK A01 T00850040  RH  073%=      5-min Rain = 0
KTR1 131612Z 32005KT 09/04 A2994 RMK A01 T00880041  RH  072%=      5-min Rain = 0
KTR1 131613Z 32004KT 09/04 A2994 RMK A01 T00890039  RH  071%=      5-min Rain = 0
KTR1 131614Z 32004KT 09/04 A2994 RMK A01 T00890039  RH  071%=      5-min Rain = 0
KTR1 131615Z 31004KT 09/04 A2994 RMK A01 T00890039  RH  071%=      5-min Rain = 0
KTR1 131616Z 32004KT 09/04 A2994 RMK A01 T00900039  RH  071%=      5-min Rain = 0
KTR1 131617Z 32004KT 09/04 A2994 RMK A01 T00910041  RH  071%=      5-min Rain = 0
KTR1 131618Z 32004KT 09/04 A2994 RMK A01 T00920040  RH  070%=      5-min Rain = 0
KTR1 131619Z 31004KT 09/04 A2994 RMK A01 T00920041  RH  070%=      5-min Rain = 0
KTR1 131620Z 29003KT 09/04 A2994 RMK A01 T00930041  RH  070%=      5-min Rain = 0
KTR1 131621Z 30004KT 10/04 A2994 RMK A01 T00950044  RH  071%=      5-min Rain = 0
KTR1 131622Z 32003KT 10/04 A2994 RMK A01 T00970043  RH  069%=      5-min Rain = 0
KTR1 131623Z 32003KT 10/04 A2994 RMK A01 T00970042  RH  068%=      5-min Rain = 0
KTR1 131624Z 32004KT 10/04 A2994 RMK A01 T00970041  RH  068%=      5-min Rain = 0
KTR1 131625Z 33004KT 10/04 A2993 RMK A01 T00970042  RH  068%=      5-min Rain = 0
KTR1 131626Z 30004KT 10/04 A2993 RMK A01 T00980041  RH  068%=      5-min Rain = 0
KTR1 131627Z 30003KT 10/04 A2993 RMK A01 T00970040  RH  068%=      5-min Rain = 0
KTR1 131628Z 31004KT 10/04 A2993 RMK A01 T00970042  RH  068%=      5-min Rain = 0
KTR1 131629Z 31003KT 10/04 A2993 RMK A01 T00970041  RH  068%=      5-min Rain = 0
KTR1 131630Z 32003KT 10/04 A2993 RMK A01 T00980040  RH  067%=      5-min Rain = 0
KTR1 131631Z 32003KT 10/04 A2994 RMK A01 T00970040  RH  067%=      5-min Rain = 0
KTR1 131632Z 28002KT 10/04 A2993 RMK A01 T00980042  RH  068%=      5-min Rain = 0
KTR1 131633Z 27002KT 10/04 A2993 RMK A01 T01000043  RH  068%=      5-min Rain = 0
KTR1 131634Z 32002KT 10/04 A2993 RMK A01 T01010041  RH  066%=      5-min Rain = 0
KTR1 131635Z 33003KT 10/04 A2993 RMK A01 T01010041  RH  066%=      5-min Rain = 0
KTR1 131636Z 33004KT 10/04 A2993 RMK A01 T01010042  RH  067%=      5-min Rain = 0
KTR1 131637Z 34003KT 10/04 A2993 RMK A01 T01020042  RH  066%=      5-min Rain = 0
KTR1 131638Z 01002KT 10/04 A2993 RMK A01 T01020041  RH  066%=      5-min Rain = 0
KTR1 131639Z 33001KT 10/04 A2993 RMK A01 T01030043  RH  066%=      5-min Rain = 0
KTR1 131640Z 30001KT 10/04 A2993 RMK A01 T01030042  RH  066%=      5-min Rain = 0
KTR1 131641Z 30002KT 10/04 A2993 RMK A01 T01030042  RH  066%=      5-min Rain = 0
KTR1 131642Z 32002KT 11/05 A2993 RMK A01 T01050045  RH  066%=      5-min Rain = 0
KTR1 131643Z 34002KT 11/04 A2993 RMK A01 T01050041  RH  065%=      5-min Rain = 0
KTR1 131644Z 33001KT 11/04 A2993 RMK A01 T01050043  RH  065%=      5-min Rain = 0
KTR1 131645Z 31003KT 11/04 A2993 RMK A01 T01060044  RH  065%=      5-min Rain = 0
KTR1 131646Z 34002KT 11/04 A2993 RMK A01 T01070044  RH  065%=      5-min Rain = 0
KTR1 131647Z 36002KT 11/04 A2992 RMK A01 T01070043  RH  064%=      5-min Rain = 0
KTR1 131648Z 33002KT 11/04 A2992 RMK A01 T01080043  RH  064%=      5-min Rain = 0
KTR1 131649Z 33002KT 11/04 A2992 RMK A01 T01070042  RH  064%=      5-min Rain = 0
KTR1 131650Z 33002KT 11/04 A2992 RMK A01 T01070043  RH  065%=      5-min Rain = 0
KTR1 131651Z 34001KT 11/04 A2992 RMK A01 T01080044  RH  065%=      5-min Rain = 0
KTR1 131652Z 28000KT 11/04 A2992 RMK A01 T01090043  RH  064%=      5-min Rain = 0
KTR1 131653Z 26002KT 11/04 A2992 RMK A01 T01090042  RH  063%=      5-min Rain = 0
KTR1 131654Z 27002KT 11/04 A2992 RMK A01 T01090044  RH  064%=      5-min Rain = 0
KTR1 131655Z 26001KT 11/05 A2992 RMK A01 T01090045  RH  064%=      5-min Rain = 0
KTR1 131656Z 27002KT 11/05 A2992 RMK A01 T01100045  RH  064%=      5-min Rain = 0
KTR1 131657Z 30002KT 11/05 A2992 RMK A01 T01120046  RH  064%=      5-min Rain = 0
KTR1 131658Z 29002KT 11/05 A2992 RMK A01 T01120045  RH  063%=      5-min Rain = 0
KTR1 131659Z 29002KT 11/05 A2992 RMK A01 T01120047  RH  064%=      5-min Rain = 0
KTR1 131700Z 29001KT 11/05 A2992 RMK A01 T01130046  RH  063%=      5-min Rain = 0
KTR1 131701Z 30001KT 11/05 A2992 RMK A01 T01130046  RH  063%=      5-min Rain = 0
KTR1 131702Z 25001KT 11/05 A2992 RMK A01 T01130046  RH  063%=      5-min Rain = 0
KTR1 131703Z 25001KT 11/05 A2992 RMK A01 T01140046  RH  063%=      5-min Rain = 0
KTR1 131704Z 25002KT 12/05 A2992 RMK A01 T01150045  RH  062%=      5-min Rain = 0
KTR1 131705Z 25003KT 12/05 A2991 RMK A01 T01160046  RH  062%=      5-min Rain = 0
KTR1 131706Z 26002KT 12/05 A2991 RMK A01 T01160045  RH  062%=      5-min Rain = 0
KTR1 131707Z 28001KT 12/05 A2991 RMK A01 T01160045  RH  062%=      5-min Rain = 0
KTR1 131708Z 28000KT 12/04 A2991 RMK A01 T01170044  RH  061%=      5-min Rain = 0
KTR1 131709Z 28002KT 12/05 A2991 RMK A01 T01190048  RH  062%=      5-min Rain = 0
KTR1 131710Z 30001KT 12/05 A2991 RMK A01 T01200046  RH  060%=      5-min Rain = 0
KTR1 131711Z 31001KT 12/05 A2991 RMK A01 T01200046  RH  060%=      5-min Rain = 0
KTR1 131712Z 33001KT 12/05 A2991 RMK A01 T01210049  RH  061%=      5-min Rain = 0
KTR1 131713Z 29001KT 12/05 A2991 RMK A01 T01230049  RH  060%=      5-min Rain = 0
KTR1 131714Z 28001KT 12/05 A2991 RMK A01 T01240046  RH  059%=      5-min Rain = 0
KTR1 131715Z 27003KT 12/05 A2991 RMK A01 T01240048  RH  060%=      5-min Rain = 0
KTR1 131716Z 25001KT 12/05 A2991 RMK A01 T01230047  RH  060%=      5-min Rain = 0
KTR1 131717Z 24002KT 12/05 A299 RMK A01 T01230048  RH  060%=      5-min Rain = 0
KTR1 131718Z 24003KT 13/05 A299 RMK A01 T01250050  RH  060%=      5-min Rain = 0
KTR1 131719Z 24002KT 13/05 A299 RMK A01 T01260049  RH  059%=      5-min Rain = 0
KTR1 131720Z 25001KT 13/05 A299 RMK A01 T01270050  RH  059%=      5-min Rain = 0
KTR1 131721Z 22002KT 13/05 A299 RMK A01 T01290049  RH  058%=      5-min Rain = 0
KTR1 131722Z 23003KT 13/05 A299 RMK A01 T01290048  RH  058%=      5-min Rain = 0
KTR1 131723Z 23002KT 13/05 A299 RMK A01 T01300049  RH  058%=      5-min Rain = 0
KTR1 131724Z 26001KT 13/05 A299 RMK A01 T01290049  RH  058%=      5-min Rain = 0
KTR1 131725Z 24001KT 13/05 A299 RMK A01 T01300048  RH  058%=      5-min Rain = 0
KTR1 131726Z 23002KT 13/05 A299 RMK A01 T01310050  RH  058%=      5-min Rain = 0
KTR1 131727Z 20002KT 13/05 A299 RMK A01 T01310049  RH  058%=      5-min Rain = 0
KTR1 131728Z 18002KT 13/05 A299 RMK A01 T01300047  RH  057%=      5-min Rain = 0
KTR1 131729Z 15001KT 13/05 A2989 RMK A01 T01300047  RH  057%=      5-min Rain = 0
KTR1 131730Z 17002KT 13/05 A2989 RMK A01 T01310049  RH  057%=      5-min Rain = 0
KTR1 131731Z 17003KT 13/05 A2989 RMK A01 T01330050  RH  057%=      5-min Rain = 0
KTR1 131732Z 18003KT 14/05 A2989 RMK A01 T01350050  RH  056%=      5-min Rain = 0
KTR1 131733Z 20002KT 14/05 A2989 RMK A01 T01350049  RH  056%=      5-min Rain = 0
KTR1 131734Z 18004KT 14/05 A2989 RMK A01 T01350050  RH  056%=      5-min Rain = 0
KTR1 131735Z 18004KT 13/05 A2989 RMK A01 T01340050  RH  057%=      5-min Rain = 0
KTR1 131736Z 18004KT 13/05 A2989 RMK A01 T01340051  RH  057%=      5-min Rain = 0
KTR1 131737Z 20003KT 13/05 A2989 RMK A01 T01330051  RH  058%=      5-min Rain = 0
KTR1 131738Z 19004KT 13/05 A2989 RMK A01 T01330053  RH  058%=      5-min Rain = 0
KTR1 131739Z 18002KT 14/05 A2989 RMK A01 T01350052  RH  057%=      5-min Rain = 0
KTR1 131740Z 15002KT 13/05 A2989 RMK A01 T01340053  RH  058%=      5-min Rain = 0
KTR1 131741Z 18004KT 14/05 A2989 RMK A01 T01350053  RH  057%=      5-min Rain = 0
KTR1 131742Z 15003KT 14/06 A2989 RMK A01 T01370055  RH  058%=      5-min Rain = 0
KTR1 131743Z 14002KT 14/06 A2989 RMK A01 T01390055  RH  057%=      5-min Rain = 0
KTR1 131744Z 14002KT 14/05 A2989 RMK A01 T01400054  RH  056%=      5-min Rain = 0
KTR1 131745Z 19004KT 14/05 A2989 RMK A01 T01400053  RH  056%=      5-min Rain = 0
KTR1 131746Z 22003KT 14/05 A2988 RMK A01 T01410053  RH  055%=      5-min Rain = 0
KTR1 131747Z 20002KT 14/05 A2989 RMK A01 T01400052  RH  055%=      5-min Rain = 0
KTR1 131748Z 18002KT 14/05 A2989 RMK A01 T01400053  RH  056%=      5-min Rain = 0
KTR1 131749Z 19005KT 14/05 A2988 RMK A01 T01410053  RH  055%=      5-min Rain = 0
KTR1 131750Z 20004KT 14/05 A2988 RMK A01 T01420051  RH  054%=      5-min Rain = 0
KTR1 131751Z 19003KT 14/05 A2988 RMK A01 T01440054  RH  055%=      5-min Rain = 0
KTR1 131752Z 18005KT 15/05 A2988 RMK A01 T01450051  RH  053%=      5-min Rain = 0
KTR1 131753Z 16004KT 15/05 A2988 RMK A01 T01450050  RH  053%=      5-min Rain = 0
KTR1 131754Z 15003KT 15/05 A2988 RMK A01 T01450049  RH  052%=      5-min Rain = 0
KTR1 131755Z 16003KT 15/05 A2988 RMK A01 T01460049  RH  052%=      5-min Rain = 0
KTR1 131756Z 15002KT 15/05 A2988 RMK A01 T01460051  RH  053%=      5-min Rain = 0
KTR1 131757Z 15003KT 15/05 A2988 RMK A01 T01470050  RH  052%=      5-min Rain = 0
KTR1 131758Z 14003KT 15/05 A2988 RMK A01 T01470049  RH  052%=      5-min Rain = 0
KTR1 131759Z 14003KT 15/05 A2988 RMK A01 T01470048  RH  052%=      5-min Rain = 0
KTR1 131800Z 14003KT 15/05 A2988 RMK A01 T01460050  RH  052%=      5-min Rain = 0
KTR1 131801Z 16004KT 15/05 A2988 RMK A01 T01480051  RH  052%=      5-min Rain = 0
KTR1 131802Z 16003KT 15/05 A2988 RMK A01 T01500053  RH  052%=      5-min Rain = 0
KTR1 131803Z 16003KT 15/05 A2987 RMK A01 T01500052  RH  052%=      5-min Rain = 0
KTR1 131804Z 16001KT 15/05 A2987 RMK A01 T01500051  RH  051%=      5-min Rain = 0
KTR1 131805Z 14002KT 15/05 A2987 RMK A01 T01500051  RH  051%=      5-min Rain = 0
KTR1 131806Z 14003KT 15/05 A2987 RMK A01 T01500051  RH  052%=      5-min Rain = 0
KTR1 131807Z 18002KT 15/05 A2987 RMK A01 T01500052  RH  052%=      5-min Rain = 0
KTR1 131808Z 20003KT 15/05 A2987 RMK A01 T01510052  RH  051%=      5-min Rain = 0
KTR1 131809Z 21001KT 15/05 A2987 RMK A01 T01530050  RH  050%=      5-min Rain = 0
KTR1 131810Z 21001KT 15/05 A2987 RMK A01 T01520050  RH  051%=      5-min Rain = 0
KTR1 131811Z 20002KT 15/05 A2987 RMK A01 T01520051  RH  051%=      5-min Rain = 0
KTR1 131812Z 21002KT 15/05 A2987 RMK A01 T01520051  RH  051%=      5-min Rain = 0
KTR1 131813Z 22002KT 15/05 A2987 RMK A01 T01520050  RH  051%=      5-min Rain = 0
KTR1 131814Z 21001KT 15/05 A2987 RMK A01 T01520051  RH  051%=      5-min Rain = 0
KTR1 131815Z 16004KT 15/05 A2987 RMK A01 T01510053  RH  052%=      5-min Rain = 0
KTR1 131816Z 15004KT 15/05 A2987 RMK A01 T01520052  RH  051%=      5-min Rain = 0
KTR1 131817Z 14001KT 15/05 A2987 RMK A01 T01510050  RH  051%=      5-min Rain = 0
KTR1 131818Z 17000KT 15/05 A2987 RMK A01 T01500051  RH  052%=      5-min Rain = 0
KTR1 131819Z 17001KT 15/05 A2987 RMK A01 T01530052  RH  051%=      5-min Rain = 0
KTR1 131820Z 19005KT 16/05 A2987 RMK A01 T01560052  RH  050%=      5-min Rain = 0
KTR1 131821Z 20004KT 16/05 A2987 RMK A01 T01560051  RH  049%=      5-min Rain = 0
KTR1 131822Z 22004KT 16/05 A2987 RMK A01 T01550052  RH  050%=      5-min Rain = 0
KTR1 131823Z 24003KT 16/05 A2987 RMK A01 T01550050  RH  050%=      5-min Rain = 0
KTR1 131824Z 20002KT 15/05 A2987 RMK A01 T01540050  RH  050%=      5-min Rain = 0
KTR1 131825Z 16004KT 15/05 A2987 RMK A01 T01520052  RH  051%=      5-min Rain = 0
KTR1 131826Z 15003KT 15/05 A2987 RMK A01 T01540052  RH  051%=      5-min Rain = 0
KTR1 131827Z 14002KT 15/05 A2987 RMK A01 T01540051  RH  050%=      5-min Rain = 0
KTR1 131828Z 13002KT 15/05 A2987 RMK A01 T01540051  RH  050%=      5-min Rain = 0
KTR1 131829Z 15003KT 16/05 A2986 RMK A01 T01550052  RH  050%=      5-min Rain = 0
KTR1 131830Z 14003KT 16/05 A2986 RMK A01 T01560049  RH  049%=      5-min Rain = 0
KTR1 131831Z 15005KT 16/05 A2986 RMK A01 T01560053  RH  050%=      5-min Rain = 0
KTR1 131832Z 16004KT 16/05 A2986 RMK A01 T01590052  RH  049%=      5-min Rain = 0
KTR1 131833Z 15003KT 16/05 A2986 RMK A01 T01580048  RH  048%=      5-min Rain = 0
KTR1 131834Z 16004KT 16/05 A2986 RMK A01 T01570049  RH  049%=      5-min Rain = 0
KTR1 131835Z 16003KT 16/05 A2986 RMK A01 T01560050  RH  049%=      5-min Rain = 0
KTR1 131836Z 17005KT 16/05 A2986 RMK A01 T01560053  RH  050%=      5-min Rain = 0
KTR1 131837Z 18004KT 16/05 A2986 RMK A01 T01570054  RH  050%=      5-min Rain = 0
KTR1 131838Z 17004KT 16/05 A2986 RMK A01 T01570052  RH  049%=      5-min Rain = 0
KTR1 131839Z 17004KT 16/05 A2986 RMK A01 T01570053  RH  050%=      5-min Rain = 0
KTR1 131840Z 14004KT 16/05 A2986 RMK A01 T01570051  RH  050%=      5-min Rain = 0
KTR1 131841Z 15004KT 16/05 A2986 RMK A01 T01570051  RH  049%=      5-min Rain = 0
KTR1 131842Z 17005KT 16/05 A2986 RMK A01 T01570049  RH  049%=      5-min Rain = 0
KTR1 131843Z 18005KT 16/05 A2986 RMK A01 T01570048  RH  048%=      5-min Rain = 0
KTR1 131844Z 16003KT 16/05 A2986 RMK A01 T01560049  RH  049%=      5-min Rain = 0
KTR1 131845Z 20002KT 16/05 A2986 RMK A01 T01560048  RH  049%=      5-min Rain = 0
KTR1 131846Z 16002KT 16/05 A2985 RMK A01 T01560050  RH  049%=      5-min Rain = 0
KTR1 131847Z 16002KT 16/05 A2985 RMK A01 T01590050  RH  048%=      5-min Rain = 0
KTR1 131848Z 19005KT 16/05 A2985 RMK A01 T01620052  RH  048%=      5-min Rain = 0
KTR1 131849Z 18005KT 16/05 A2985 RMK A01 T01630050  RH  047%=      5-min Rain = 0
KTR1 131850Z 18006KT 16/05 A2985 RMK A01 T01620048  RH  046%=      5-min Rain = 0
KTR1 131851Z 18005KT 16/05 A2985 RMK A01 T01600048  RH  047%=      5-min Rain = 0
KTR1 131852Z 19004KT 16/05 A2985 RMK A01 T01600048  RH  047%=      5-min Rain = 0
KTR1 131853Z 20003KT 16/05 A2985 RMK A01 T01610048  RH  047%=      5-min Rain = 0
KTR1 131854Z 14003KT 16/05 A2985 RMK A01 T01630049  RH  047%=      5-min Rain = 0
KTR1 131855Z 16002KT 16/05 A2985 RMK A01 T01640046  RH  045%=      5-min Rain = 0
KTR1 131856Z 17002KT 16/05 A2985 RMK A01 T01630045  RH  045%=      5-min Rain = 0
KTR1 131857Z 13005KT 16/05 A2985 RMK A01 T01620046  RH  046%=      5-min Rain = 0
KTR1 131858Z 18004KT 16/05 A2985 RMK A01 T01610046  RH  046%=      5-min Rain = 0
KTR1 131859Z 21003KT 16/05 A2985 RMK A01 T01610046  RH  046%=      5-min Rain = 0
KTR1 131900Z 19004KT 16/05 A2985 RMK A01 T01620047  RH  046%=      5-min Rain = 0
KTR1 131901Z 18006KT 16/05 A2985 RMK A01 T01640047  RH  046%=      5-min Rain = 0
KTR1 131902Z 18006KT 17/05 A2985 RMK A01 T01650047  RH  046%=      5-min Rain = 0
KTR1 131903Z 18007KT 17/05 A2984 RMK A01 T01650049  RH  046%=      5-min Rain = 0
KTR1 131904Z 18008KT 17/05 A2984 RMK A01 T01670049  RH  045%=      5-min Rain = 0
KTR1 131905Z 19005KT 17/05 A2984 RMK A01 T01670048  RH  045%=      5-min Rain = 0
KTR1 131906Z 18006KT 17/05 A2984 RMK A01 T01670049  RH  045%=      5-min Rain = 0
KTR1 131907Z 18007KT 17/05 A2984 RMK A01 T01690050  RH  045%=      5-min Rain = 0
KTR1 131908Z 19007KT 17/05 A2984 RMK A01 T01690047  RH  044%=      5-min Rain = 0
KTR1 131909Z 18005KT 17/05 A2984 RMK A01 T01680047  RH  045%=      5-min Rain = 0
KTR1 131910Z 19004KT 17/05 A2984 RMK A01 T01670045  RH  044%=      5-min Rain = 0
KTR1 131911Z 19004KT 17/05 A2984 RMK A01 T01690050  RH  045%=      5-min Rain = 0
KTR1 131912Z 21005KT 17/05 A2984 RMK A01 T01740049  RH  044%=      5-min Rain = 0
KTR1 131913Z 21008KT 18/05 A2984 RMK A01 T01760047  RH  043%=      5-min Rain = 0
KTR1 131914Z 20007KT 18/05 A2984 RMK A01 T01760045  RH  042%=      5-min Rain = 0
KTR1 131915Z 20005KT 17/04 A2983 RMK A01 T01740042  RH  042%=      5-min Rain = 0
KTR1 131916Z 20004KT 17/04 A2983 RMK A01 T01720041  RH  042%=      5-min Rain = 0
KTR1 131917Z 18005KT 17/04 A2983 RMK A01 T01710043  RH  043%=      5-min Rain = 0
KTR1 131918Z 19007KT 17/04 A2983 RMK A01 T01710042  RH  042%=      5-min Rain = 0
KTR1 131919Z 22008KT 17/04 A2983 RMK A01 T01720044  RH  043%=      5-min Rain = 0
KTR1 131920Z 22006KT 17/04 A2983 RMK A01 T01740041  RH  041%=      5-min Rain = 0
KTR1 131921Z 21005KT 17/04 A2983 RMK A01 T01740039  RH  041%=      5-min Rain = 0
KTR1 131922Z 23005KT 17/04 A2983 RMK A01 T01730040  RH  041%=      5-min Rain = 0
KTR1 131923Z 22005KT 17/04 A2983 RMK A01 T01730043  RH  042%=      5-min Rain = 0
KTR1 131924Z 21005KT 18/04 A2983 RMK A01 T01750039  RH  041%=      5-min Rain = 0
KTR1 131925Z 19005KT 18/04 A2983 RMK A01 T01750039  RH  040%=      5-min Rain = 0
KTR1 131926Z 20008KT 18/04 A2983 RMK A01 T01750041  RH  041%=      5-min Rain = 0
KTR1 131927Z 22007KT 18/04 A2983 RMK A01 T01750042  RH  041%=      5-min Rain = 0
KTR1 131928Z 23006KT 18/04 A2983 RMK A01 T01750044  RH  042%=      5-min Rain = 0
KTR1 131929Z 23007KT 18/04 A2983 RMK A01 T01770043  RH  041%=      5-min Rain = 0
KTR1 131930Z 25007KT 18/04 A2983 RMK A01 T01770042  RH  041%=      5-min Rain = 0
KTR1 131931Z 26005KT 18/04 A2983 RMK A01 T01770043  RH  041%=      5-min Rain = 0
KTR1 131932Z 25007KT 18/05 A2983 RMK A01 T01770047  RH  042%=      5-min Rain = 0
KTR1 131933Z 20007KT 18/05 A2983 RMK A01 T01770047  RH  042%=      5-min Rain = 0
KTR1 131934Z 20008KT 18/05 A2984 RMK A01 T01780046  RH  042%=      5-min Rain = 0
KTR1 131935Z 21005KT 18/05 A2984 RMK A01 T01770045  RH  042%=      5-min Rain = 0
KTR1 131936Z 21001KT 18/04 A2984 RMK A01 T01750044  RH  042%=      5-min Rain = 0
KTR1 131937Z 19005KT 18/04 A2983 RMK A01 T01750044  RH  042%=      5-min Rain = 0
KTR1 131938Z 19007KT 18/04 A2983 RMK A01 T01760044  RH  042%=      5-min Rain = 0
KTR1 131939Z 22007KT 18/04 A2983 RMK A01 T01780044  RH  041%=      5-min Rain = 0
KTR1 131940Z 23007KT 18/04 A2983 RMK A01 T01800042  RH  040%=      5-min Rain = 0
KTR1 131941Z 19007KT 18/05 A2983 RMK A01 T01800046  RH  041%=      5-min Rain = 0
KTR1 131942Z 19008KT 18/05 A2983 RMK A01 T01810047  RH  041%=      5-min Rain = 0
KTR1 131943Z 18006KT 18/05 A2983 RMK A01 T01790045  RH  041%=      5-min Rain = 0
KTR1 131944Z 22006KT 18/04 A2983 RMK A01 T01790044  RH  041%=      5-min Rain = 0
KTR1 131945Z 21005KT 18/04 A2983 RMK A01 T01800039  RH  039%=      5-min Rain = 0
KTR1 131946Z 21006KT 18/04 A2983 RMK A01 T01800038  RH  039%=      5-min Rain = 0
KTR1 131947Z 21008KT 18/04 A2983 RMK A01 T01800039  RH  039%=      5-min Rain = 0
KTR1 131948Z 21008KT 18/04 A2983 RMK A01 T01800036  RH  038%=      5-min Rain = 0
KTR1 131949Z 20007KT 18/04 A2983 RMK A01 T01790040  RH  039%=      5-min Rain = 0
KTR1 131950Z 20007KT 18/04 A2983 RMK A01 T01800041  RH  040%=      5-min Rain = 0
KTR1 131951Z 20007KT 18/04 A2983 RMK A01 T01800040  RH  039%=      5-min Rain = 0
KTR1 131952Z 19005KT 18/04 A2983 RMK A01 T01790036  RH  039%=      5-min Rain = 0
KTR1 131953Z 19005KT 18/04 A2982 RMK A01 T01780040  RH  040%=      5-min Rain = 0
KTR1 131954Z 19007KT 18/04 A2982 RMK A01 T01800040  RH  040%=      5-min Rain = 0
KTR1 131955Z 18006KT 18/04 A2982 RMK A01 T01820038  RH  038%=      5-min Rain = 0
KTR1 131956Z 18005KT 18/04 A2982 RMK A01 T01810036  RH  038%=      5-min Rain = 0
KTR1 131957Z 20005KT 18/04 A2982 RMK A01 T01800038  RH  039%=      5-min Rain = 0
KTR1 131958Z 20003KT 18/04 A2982 RMK A01 T01810037  RH  038%=      5-min Rain = 0
KTR1 131959Z 21004KT 18/04 A2982 RMK A01 T01800038  RH  039%=      5-min Rain = 0
KTR1 132000Z 22005KT 18/04 A2982 RMK A01 T01810040  RH  039%=      5-min Rain = 0
KTR1 132001Z 21004KT 18/04 A2982 RMK A01 T01840041  RH  039%=      5-min Rain = 0
KTR1 132002Z 23005KT 19/04 A2982 RMK A01 T01860039  RH  038%=      5-min Rain = 0
KTR1 132003Z 19004KT 19/04 A2982 RMK A01 T01860040  RH  038%=      5-min Rain = 0
KTR1 132004Z 22003KT 19/04 A2982 RMK A01 T01870039  RH  037%=      5-min Rain = 0
KTR1 132005Z 22003KT 19/04 A2982 RMK A01 T01870038  RH  037%=      5-min Rain = 0
KTR1 132006Z 22004KT 19/04 A2982 RMK A01 T01860040  RH  038%=      5-min Rain = 0
KTR1 132007Z 23007KT 19/04 A2982 RMK A01 T01860038  RH  037%=      5-min Rain = 0
KTR1 132008Z 21005KT 19/04 A2982 RMK A01 T01850040  RH  038%=      5-min Rain = 0
KTR1 132009Z 21004KT 19/04 A2982 RMK A01 T01860040  RH  038%=      5-min Rain = 0
KTR1 132010Z 22006KT 19/04 A2982 RMK A01 T01870040  RH  038%=      5-min Rain = 0
KTR1 132011Z 21004KT 19/04 A2982 RMK A01 T01880037  RH  037%=      5-min Rain = 0
KTR1 132012Z 19005KT 19/04 A2982 RMK A01 T01880040  RH  037%=      5-min Rain = 0
KTR1 132013Z 18006KT 19/04 A2982 RMK A01 T01880039  RH  037%=      5-min Rain = 0
KTR1 132014Z 18007KT 19/04 A2982 RMK A01 T01880042  RH  038%=      5-min Rain = 0
KTR1 132015Z 19007KT 19/04 A2982 RMK A01 T01890042  RH  038%=      5-min Rain = 0
KTR1 132016Z 18007KT 19/04 A2982 RMK A01 T01890040  RH  037%=      5-min Rain = 0
KTR1 132017Z 22007KT 19/04 A2982 RMK A01 T01880039  RH  037%=      5-min Rain = 0
KTR1 132018Z 20004KT 19/04 A2982 RMK A01 T01870039  RH  037%=      5-min Rain = 0
KTR1 132019Z 18007KT 19/04 A2982 RMK A01 T01880040  RH  038%=      5-min Rain = 0
KTR1 132020Z 20007KT 19/04 A2982 RMK A01 T01870040  RH  038%=      5-min Rain = 0
KTR1 132021Z 17006KT 19/04 A2982 RMK A01 T01850039  RH  038%=      5-min Rain = 0
KTR1 132022Z 16007KT 19/04 A2982 RMK A01 T01850040  RH  038%=      5-min Rain = 0
KTR1 132023Z 17003KT 18/04 A2982 RMK A01 T01840038  RH  038%=      5-min Rain = 0
KTR1 132024Z 17003KT 18/04 A2982 RMK A01 T01840040  RH  038%=      5-min Rain = 0
KTR1 132025Z 18007KT 19/04 A2982 RMK A01 T01870042  RH  038%=      5-min Rain = 0
KTR1 132026Z 18006KT 19/04 A2982 RMK A01 T01880040  RH  038%=      5-min Rain = 0
KTR1 132027Z 17005KT 19/04 A2982 RMK A01 T01880040  RH  037%=      5-min Rain = 0
KTR1 132028Z 17006KT 19/04 A2982 RMK A01 T01880039  RH  037%=      5-min Rain = 0
KTR1 132029Z 18007KT 19/04 A2982 RMK A01 T01880040  RH  037%=      5-min Rain = 0
KTR1 132030Z 16007KT 19/04 A2982 RMK A01 T01890040  RH  037%=      5-min Rain = 0
KTR1 132031Z 17008KT 19/04 A2982 RMK A01 T01890040  RH  037%=      5-min Rain = 0
KTR1 132032Z 19008KT 19/04 A2982 RMK A01 T01890039  RH  037%=      5-min Rain = 0
KTR1 132033Z 20008KT 19/04 A2982 RMK A01 T01900038  RH  037%=      5-min Rain = 0
KTR1 132034Z 20007KT 19/04 A2982 RMK A01 T01910038  RH  036%=      5-min Rain = 0
KTR1 132035Z 19006KT 19/04 A2982 RMK A01 T01900041  RH  037%=      5-min Rain = 0
KTR1 132036Z 18006KT 19/04 A2982 RMK A01 T01910041  RH  037%=      5-min Rain = 0
KTR1 132037Z 19004KT 19/04 A2982 RMK A01 T01910042  RH  037%=      5-min Rain = 0
KTR1 132038Z 22005KT 19/04 A2982 RMK A01 T01920041  RH  037%=      5-min Rain = 0
KTR1 132039Z 20007KT 19/04 A2982 RMK A01 T01930038  RH  036%=      5-min Rain = 0
KTR1 132040Z 19008KT 19/04 A2982 RMK A01 T01920037  RH  036%=      5-min Rain = 0
KTR1 132041Z 19007KT 19/04 A2982 RMK A01 T01910038  RH  036%=      5-min Rain = 0
KTR1 132042Z 18005KT 19/04 A2982 RMK A01 T01890038  RH  037%=      5-min Rain = 0
KTR1 132043Z 19008KT 19/04 A2982 RMK A01 T01890038  RH  037%=      5-min Rain = 0
KTR1 132044Z 20007KT 19/04 A2982 RMK A01 T01890037  RH  036%=      5-min Rain = 0
KTR1 132045Z 17007KT 19/04 A2981 RMK A01 T01900040  RH  037%=      5-min Rain = 0
KTR1 132046Z 18009KT 19/04 A2982 RMK A01 T01900040  RH  037%=      5-min Rain = 0
KTR1 132047Z 18009KT 19/04 A2982 RMK A01 T01900040  RH  037%=      5-min Rain = 0
KTR1 132048Z 18008KT 19/04 A2982 RMK A01 T01900039  RH  037%=      5-min Rain = 0
KTR1 132049Z 19008KT 19/04 A2982 RMK A01 T01890039  RH  037%=      5-min Rain = 0
KTR1 132050Z 18008KT 19/04 A2982 RMK A01 T01890039  RH  037%=      5-min Rain = 0
KTR1 132051Z 18006KT 19/04 A2982 RMK A01 T01890037  RH  036%=      5-min Rain = 0
KTR1 132052Z 17005KT 19/04 A2982 RMK A01 T01880037  RH  037%=      5-min Rain = 0
KTR1 132053Z 19006KT 19/04 A2982 RMK A01 T01880039  RH  037%=      5-min Rain = 0
KTR1 132054Z 19005KT 19/04 A2982 RMK A01 T01900039  RH  037%=      5-min Rain = 0
KTR1 132055Z 19005KT 19/04 A2981 RMK A01 T01910041  RH  037%=      5-min Rain = 0
KTR1 132056Z 18009KT 19/04 A2981 RMK A01 T01910041  RH  037%=      5-min Rain = 0
KTR1 132057Z 17008KT 19/04 A2982 RMK A01 T01900041  RH  037%=      5-min Rain = 0
KTR1 132058Z 16006KT 19/04 A2982 RMK A01 T01890039  RH  037%=      5-min Rain = 0
KTR1 132059Z 15006KT 19/04 A2982 RMK A01 T01870041  RH  038%=      5-min Rain = 0
KTR1 132100Z 16010KT 19/04 A2982 RMK A01 T01880040  RH  038%=      5-min Rain = 0
KTR1 132101Z 17007KT 19/04 A2981 RMK A01 T01880040  RH  038%=      5-min Rain = 0
KTR1 132102Z 19008KT 19/04 A2981 RMK A01 T01880041  RH  038%=      5-min Rain = 0
KTR1 132103Z 18007KT 19/04 A2981 RMK A01 T01880042  RH  038%=      5-min Rain = 0
KTR1 132104Z 18007KT 19/04 A2981 RMK A01 T01880041  RH  038%=      5-min Rain = 0
KTR1 132105Z 17006KT 19/04 A2981 RMK A01 T01880042  RH  038%=      5-min Rain = 0
KTR1 132106Z 17007KT 19/04 A2981 RMK A01 T01890043  RH  038%=      5-min Rain = 0
KTR1 132107Z 17007KT 19/04 A2981 RMK A01 T01910044  RH  038%=      5-min Rain = 0
KTR1 132108Z 17006KT 19/04 A2981 RMK A01 T01920044  RH  038%=      5-min Rain = 0
KTR1 132109Z 17008KT 19/04 A2981 RMK A01 T01920044  RH  038%=      5-min Rain = 0
KTR1 132110Z 17007KT 19/04 A2981 RMK A01 T01920044  RH  038%=      5-min Rain = 0
KTR1 132111Z 17007KT 19/05 A2981 RMK A01 T01920046  RH  038%=      5-min Rain = 0
KTR1 132112Z 17008KT 19/04 A2981 RMK A01 T01910043  RH  038%=      5-min Rain = 0
KTR1 132113Z 17008KT 19/04 A2981 RMK A01 T01900043  RH  038%=      5-min Rain = 0
KTR1 132114Z 16007KT 19/04 A2981 RMK A01 T01890044  RH  038%=      5-min Rain = 0
KTR1 132115Z 16006KT 19/04 A2981 RMK A01 T01890043  RH  038%=      5-min Rain = 0
KTR1 132116Z 16008KT 19/04 A2981 RMK A01 T01890043  RH  038%=      5-min Rain = 0
KTR1 132117Z 17006KT 19/04 A2981 RMK A01 T01900043  RH  038%=      5-min Rain = 0
KTR1 132118Z 16006KT 19/04 A2981 RMK A01 T01900042  RH  038%=      5-min Rain = 0
KTR1 132119Z 15005KT 19/04 A2981 RMK A01 T01900043  RH  038%=      5-min Rain = 0
KTR1 132120Z 15006KT 19/04 A2981 RMK A01 T01910041  RH  037%=      5-min Rain = 0
KTR1 132121Z 16006KT 19/04 A2981 RMK A01 T01910042  RH  037%=      5-min Rain = 0
KTR1 132122Z 16004KT 19/04 A2981 RMK A01 T01910042  RH  037%=      5-min Rain = 0
KTR1 132123Z 16006KT 19/04 A2981 RMK A01 T01910042  RH  037%=      5-min Rain = 0
KTR1 132124Z 16006KT 19/04 A2981 RMK A01 T01920041  RH  037%=      5-min Rain = 0
KTR1 132125Z 15004KT 19/04 A2982 RMK A01 T01920040  RH  037%=      5-min Rain = 0
KTR1 132126Z 14004KT 19/04 A2982 RMK A01 T01910040  RH  037%=      5-min Rain = 0
KTR1 132127Z 14005KT 19/04 A2981 RMK A01 T01910040  RH  037%=      5-min Rain = 0
KTR1 132128Z 15004KT 19/04 A2981 RMK A01 T01920041  RH  037%=      5-min Rain = 0
KTR1 132129Z 14004KT 19/04 A2981 RMK A01 T01930041  RH  037%=      5-min Rain = 0
KTR1 132130Z 16004KT 19/04 A2981 RMK A01 T01930041  RH  037%=      5-min Rain = 0
KTR1 132131Z 15004KT 19/04 A2981 RMK A01 T01940040  RH  036%=      5-min Rain = 0
KTR1 132132Z 15004KT 19/04 A2982 RMK A01 T01940039  RH  036%=      5-min Rain = 0
KTR1 132133Z 15006KT 19/04 A2982 RMK A01 T01940040  RH  036%=      5-min Rain = 0
KTR1 132134Z 15005KT 19/04 A2982 RMK A01 T01940040  RH  036%=      5-min Rain = 0
KTR1 132135Z 15004KT 19/04 A2982 RMK A01 T01930038  RH  036%=      5-min Rain = 0
KTR1 132136Z 13003KT 19/04 A2982 RMK A01 T01920037  RH  036%=      5-min Rain = 0
KTR1 132137Z 14003KT 19/04 A2982 RMK A01 T01920038  RH  036%=      5-min Rain = 0
KTR1 132138Z 13005KT 19/04 A2982 RMK A01 T01910040  RH  037%=      5-min Rain = 0
KTR1 132139Z 15004KT 19/04 A2982 RMK A01 T01930040  RH  037%=      5-min Rain = 0
KTR1 132140Z 15003KT 19/04 A2981 RMK A01 T01940041  RH  036%=      5-min Rain = 0
KTR1 132141Z 14004KT 20/04 A2981 RMK A01 T01950040  RH  036%=      5-min Rain = 0
KTR1 132142Z 13006KT 20/04 A2981 RMK A01 T01950037  RH  035%=      5-min Rain = 0
KTR1 132143Z 11005KT 19/04 A2982 RMK A01 T01940037  RH  035%=      5-min Rain = 0
KTR1 132144Z 11004KT 19/04 A2982 RMK A01 T01930036  RH  035%=      5-min Rain = 0
KTR1 132145Z 13004KT 19/04 A2982 RMK A01 T01920037  RH  036%=      5-min Rain = 0
KTR1 132146Z 13005KT 19/04 A2982 RMK A01 T01930038  RH  036%=      5-min Rain = 0
KTR1 132147Z 13004KT 19/04 A2982 RMK A01 T01930036  RH  035%=      5-min Rain = 0
KTR1 132148Z 14005KT 19/04 A2982 RMK A01 T01930037  RH  036%=      5-min Rain = 0
KTR1 132149Z 14005KT 19/04 A2982 RMK A01 T01930037  RH  036%=      5-min Rain = 0
KTR1 132150Z 14006KT 19/04 A2981 RMK A01 T01930037  RH  036%=      5-min Rain = 0
KTR1 132151Z 14004KT 19/04 A2981 RMK A01 T01930036  RH  035%=      5-min Rain = 0
KTR1 132152Z 13003KT 19/04 A2981 RMK A01 T01930036  RH  035%=      5-min Rain = 0
KTR1 132153Z 12005KT 19/04 A2981 RMK A01 T01930037  RH  036%=      5-min Rain = 0
KTR1 132154Z 12003KT 19/04 A2981 RMK A01 T01930035  RH  035%=      5-min Rain = 0
KTR1 132155Z 12003KT 19/04 A2981 RMK A01 T01920036  RH  035%=      5-min Rain = 0
KTR1 132156Z 11004KT 19/04 A2981 RMK A01 T01920035  RH  035%=      5-min Rain = 0
KTR1 132157Z 11004KT 19/04 A2981 RMK A01 T01920035  RH  035%=      5-min Rain = 0
KTR1 132158Z 11003KT 19/04 A2981 RMK A01 T01920035  RH  035%=      5-min Rain = 0
KTR1 132159Z 12003KT 19/03 A2981 RMK A01 T01920033  RH  035%=      5-min Rain = 0
KTR1 132200Z 12002KT 19/03 A2981 RMK A01 T01930032  RH  034%=      5-min Rain = 0
KTR1 132201Z 12002KT 19/03 A298 RMK A01 T01920033  RH  035%=      5-min Rain = 0
KTR1 132202Z 10002KT 19/03 A298 RMK A01 T01920034  RH  035%=      5-min Rain = 0
KTR1 132203Z 09003KT 19/04 A298 RMK A01 T01930035  RH  035%=      5-min Rain = 0
KTR1 132204Z 09003KT 19/03 A298 RMK A01 T01930034  RH  035%=      5-min Rain = 0
KTR1 132205Z 11002KT 19/03 A298 RMK A01 T01920033  RH  035%=      5-min Rain = 0
KTR1 132206Z 10003KT 19/03 A298 RMK A01 T01920034  RH  035%=      5-min Rain = 0
KTR1 132207Z 10003KT 19/04 A298 RMK A01 T01920035  RH  035%=      5-min Rain = 0
KTR1 132208Z 11003KT 19/03 A298 RMK A01 T01920034  RH  035%=      5-min Rain = 0
KTR1 132209Z 12003KT 19/03 A298 RMK A01 T01910033  RH  035%=      5-min Rain = 0
KTR1 132210Z 11003KT 19/04 A298 RMK A01 T01920036  RH  036%=      5-min Rain = 0
KTR1 132211Z 11003KT 19/04 A298 RMK A01 T01920039  RH  036%=      5-min Rain = 0
KTR1 132212Z 12004KT 19/04 A298 RMK A01 T01920038  RH  036%=      5-min Rain = 0
KTR1 132213Z 12004KT 19/04 A298 RMK A01 T01910036  RH  036%=      5-min Rain = 0
KTR1 132214Z 12003KT 19/04 A2981 RMK A01 T01900036  RH  036%=      5-min Rain = 0
KTR1 132215Z 13003KT 19/04 A2981 RMK A01 T01890036  RH  036%=      5-min Rain = 0
KTR1 132216Z 14002KT 19/03 A2981 RMK A01 T01890034  RH  036%=      5-min Rain = 0
KTR1 132217Z 13002KT 19/03 A2981 RMK A01 T01900034  RH  036%=      5-min Rain = 0
KTR1 132218Z 14003KT 19/03 A2981 RMK A01 T01900034  RH  036%=      5-min Rain = 0
KTR1 132219Z 14002KT 19/03 A2981 RMK A01 T01900034  RH  035%=      5-min Rain = 0
KTR1 132220Z 14002KT 19/04 A2981 RMK A01 T01900035  RH  036%=      5-min Rain = 0
KTR1 132221Z 12002KT 19/04 A2981 RMK A01 T01910035  RH  035%=      5-min Rain = 0
KTR1 132222Z 11002KT 19/04 A2981 RMK A01 T01920036  RH  036%=      5-min Rain = 0
KTR1 132223Z 12002KT 19/04 A2981 RMK A01 T01920036  RH  036%=      5-min Rain = 0
KTR1 132224Z 13003KT 19/04 A2981 RMK A01 T01910036  RH  036%=      5-min Rain = 0
KTR1 132225Z 12003KT 19/04 A2981 RMK A01 T01910035  RH  035%=      5-min Rain = 0
KTR1 132226Z 13003KT 19/04 A2981 RMK A01 T01910035  RH  036%=      5-min Rain = 0
KTR1 132227Z 14002KT 19/03 A2981 RMK A01 T01900034  RH  035%=      5-min Rain = 0
KTR1 132228Z 14002KT 19/03 A2981 RMK A01 T01900033  RH  035%=      5-min Rain = 0
KTR1 132229Z 13002KT 19/04 A2981 RMK A01 T01910035  RH  035%=      5-min Rain = 0
KTR1 132230Z 14002KT 19/03 A2981 RMK A01 T01910034  RH  035%=      5-min Rain = 0
KTR1 132231Z 14002KT 19/03 A2981 RMK A01 T01910034  RH  035%=      5-min Rain = 0
KTR1 132232Z 14003KT 19/04 A2981 RMK A01 T01920037  RH  036%=      5-min Rain = 0
KTR1 132233Z 15004KT 19/04 A2981 RMK A01 T01910035  RH  035%=      5-min Rain = 0
KTR1 132234Z 15004KT 19/04 A2981 RMK A01 T01920035  RH  035%=      5-min Rain = 0
KTR1 132235Z 16004KT 19/03 A2981 RMK A01 T01920034  RH  035%=      5-min Rain = 0
KTR1 132236Z 16004KT 19/04 A2981 RMK A01 T01910035  RH  035%=      5-min Rain = 0
KTR1 132237Z 16004KT 19/04 A2981 RMK A01 T01910035  RH  036%=      5-min Rain = 0
KTR1 132238Z 15004KT 19/04 A2981 RMK A01 T01900035  RH  036%=      5-min Rain = 0
KTR1 132239Z 16004KT 19/04 A2981 RMK A01 T01900036  RH  036%=      5-min Rain = 0
KTR1 132240Z 16004KT 19/04 A2981 RMK A01 T01900036  RH  036%=      5-min Rain = 0
KTR1 132241Z 16005KT 19/04 A2981 RMK A01 T01890035  RH  036%=      5-min Rain = 0
KTR1 132242Z 17004KT 19/04 A2981 RMK A01 T01880035  RH  036%=      5-min Rain = 0
KTR1 132243Z 16005KT 19/04 A2981 RMK A01 T01880036  RH  036%=      5-min Rain = 0
KTR1 132244Z 17005KT 19/04 A2981 RMK A01 T01880037  RH  037%=      5-min Rain = 0
KTR1 132245Z 17005KT 19/04 A2981 RMK A01 T01870036  RH  037%=      5-min Rain = 0
KTR1 132246Z 17005KT 19/04 A2981 RMK A01 T01870036  RH  037%=      5-min Rain = 0
KTR1 132247Z 17005KT 19/04 A2981 RMK A01 T01860035  RH  037%=      5-min Rain = 0
KTR1 132248Z 17005KT 19/04 A2981 RMK A01 T01860036  RH  037%=      5-min Rain = 0
KTR1 132249Z 17005KT 19/04 A2981 RMK A01 T01860036  RH  037%=      5-min Rain = 0
KTR1 132250Z 17005KT 19/04 A2981 RMK A01 T01850036  RH  037%=      5-min Rain = 0
KTR1 132251Z 16005KT 19/04 A2981 RMK A01 T01850036  RH  037%=      5-min Rain = 0
KTR1 132252Z 16004KT 19/04 A2981 RMK A01 T01850036  RH  037%=      5-min Rain = 0
KTR1 132253Z 16004KT 19/04 A2981 RMK A01 T01850037  RH  038%=      5-min Rain = 0
KTR1 132254Z 16005KT 18/04 A2981 RMK A01 T01840037  RH  038%=      5-min Rain = 0
KTR1 132255Z 16004KT 18/04 A2981 RMK A01 T01840036  RH  037%=      5-min Rain = 0
KTR1 132256Z 16004KT 18/04 A2981 RMK A01 T01830037  RH  038%=      5-min Rain = 0
KTR1 132257Z 17004KT 18/04 A2981 RMK A01 T01830038  RH  038%=      5-min Rain = 0
KTR1 132258Z 17004KT 18/04 A2981 RMK A01 T01830038  RH  038%=      5-min Rain = 0
KTR1 132259Z 16004KT 18/04 A2981 RMK A01 T01820036  RH  038%=      5-min Rain = 0
KTR1 132300Z 16003KT 18/04 A2981 RMK A01 T01820036  RH  038%=      5-min Rain = 0
KTR1 132301Z 15003KT 18/04 A2981 RMK A01 T01820036  RH  038%=      5-min Rain = 0
KTR1 132302Z 15003KT 18/04 A2981 RMK A01 T01810036  RH  038%=      5-min Rain = 0
KTR1 132303Z 14003KT 18/04 A2981 RMK A01 T01810036  RH  038%=      5-min Rain = 0
KTR1 132304Z 15003KT 18/04 A2981 RMK A01 T01800036  RH  038%=      5-min Rain = 0
KTR1 132305Z 15005KT 18/04 A2981 RMK A01 T01790035  RH  038%=      5-min Rain = 0
KTR1 132306Z 14005KT 18/03 A2981 RMK A01 T01780033  RH  038%=      5-min Rain = 0
KTR1 132307Z 14005KT 18/03 A2981 RMK A01 T01770034  RH  038%=      5-min Rain = 0
KTR1 132308Z 14004KT 18/03 A2981 RMK A01 T01760034  RH  039%=      5-min Rain = 0
KTR1 132309Z 14005KT 17/03 A2981 RMK A01 T01740034  RH  039%=      5-min Rain = 0
KTR1 132310Z 13004KT 17/03 A2981 RMK A01 T01730034  RH  039%=      5-min Rain = 0
KTR1 132311Z 12003KT 17/03 A2981 RMK A01 T01730034  RH  040%=      5-min Rain = 0
KTR1 132312Z 11003KT 17/04 A2981 RMK A01 T01720035  RH  040%=      5-min Rain = 0
KTR1 132313Z 12003KT 17/04 A2982 RMK A01 T01710035  RH  040%=      5-min Rain = 0
KTR1 132314Z 12003KT 17/03 A2982 RMK A01 T01690034  RH  041%=      5-min Rain = 0
KTR1 132315Z 13003KT 17/03 A2982 RMK A01 T01680034  RH  041%=      5-min Rain = 0
KTR1 132316Z 13002KT 17/03 A2982 RMK A01 T01670034  RH  041%=      5-min Rain = 0
KTR1 132317Z 14003KT 17/03 A2982 RMK A01 T01670034  RH  041%=      5-min Rain = 0
KTR1 132318Z 14003KT 17/03 A2982 RMK A01 T01660034  RH  041%=      5-min Rain = 0
KTR1 132319Z 14003KT 17/03 A2982 RMK A01 T01660034  RH  041%=      5-min Rain = 0
KTR1 132320Z 14003KT 17/03 A2982 RMK A01 T01660034  RH  041%=      5-min Rain = 0
KTR1 132321Z 14003KT 17/04 A2982 RMK A01 T01660035  RH  042%=      5-min Rain = 0
KTR1 132322Z 13003KT 17/03 A2982 RMK A01 T01650034  RH  042%=      5-min Rain = 0
KTR1 132323Z 13003KT 16/03 A2982 RMK A01 T01640034  RH  042%=      5-min Rain = 0
KTR1 132324Z 13004KT 16/03 A2982 RMK A01 T01620033  RH  042%=      5-min Rain = 0
KTR1 132325Z 13004KT 16/03 A2982 RMK A01 T01600033  RH  043%=      5-min Rain = 0
KTR1 132326Z 12004KT 16/03 A2982 RMK A01 T01580033  RH  043%=      5-min Rain = 0
KTR1 132327Z 12004KT 16/03 A2982 RMK A01 T01560033  RH  044%=      5-min Rain = 0
KTR1 132328Z 12004KT 16/03 A2982 RMK A01 T01550033  RH  044%=      5-min Rain = 0
KTR1 132329Z 12004KT 15/03 A2982 RMK A01 T01530033  RH  044%=      5-min Rain = 0
KTR1 132330Z 12004KT 15/03 A2983 RMK A01 T01520033  RH  045%=      5-min Rain = 0
KTR1 132331Z 12004KT 15/03 A2983 RMK A01 T01510032  RH  045%=      5-min Rain = 0
KTR1 132332Z 12004KT 15/03 A2983 RMK A01 T01500032  RH  045%=      5-min Rain = 0
KTR1 132333Z 13004KT 15/03 A2983 RMK A01 T01500033  RH  045%=      5-min Rain = 0
KTR1 132334Z 13004KT 15/03 A2983 RMK A01 T01500033  RH  046%=      5-min Rain = 0
KTR1 132335Z 13004KT 15/03 A2983 RMK A01 T01490033  RH  046%=      5-min Rain = 0
KTR1 132336Z 14004KT 15/03 A2983 RMK A01 T01490033  RH  046%=      5-min Rain = 0
KTR1 132337Z 14004KT 15/03 A2983 RMK A01 T01490032  RH  045%=      5-min Rain = 0
KTR1 132338Z 14004KT 15/03 A2983 RMK A01 T01490032  RH  046%=      5-min Rain = 0
KTR1 132339Z 14004KT 15/03 A2983 RMK A01 T01470032  RH  046%=      5-min Rain = 0
KTR1 132340Z 14003KT 15/03 A2983 RMK A01 T01470032  RH  046%=      5-min Rain = 0
KTR1 132341Z 14004KT 15/03 A2983 RMK A01 T01460032  RH  046%=      5-min Rain = 0
KTR1 132342Z 15004KT 15/03 A2983 RMK A01 T01460032  RH  046%=      5-min Rain = 0
KTR1 132343Z 15004KT 15/03 A2983 RMK A01 T01460032  RH  046%=      5-min Rain = 0
KTR1 132344Z 15004KT 15/03 A2983 RMK A01 T01460032  RH  046%=      5-min Rain = 0
KTR1 132345Z 14005KT 15/03 A2983 RMK A01 T01450032  RH  047%=      5-min Rain = 0
KTR1 132346Z 14005KT 15/03 A2983 RMK A01 T01450033  RH  047%=      5-min Rain = 0
KTR1 132347Z 14005KT 15/03 A2983 RMK A01 T01450033  RH  047%=      5-min Rain = 0
KTR1 132348Z 14005KT 14/03 A2983 RMK A01 T01430032  RH  047%=      5-min Rain = 0
KTR1 132349Z 14005KT 14/03 A2983 RMK A01 T01420031  RH  047%=      5-min Rain = 0
KTR1 132350Z 14006KT 14/03 A2983 RMK A01 T01400030  RH  047%=      5-min Rain = 0
KTR1 132351Z 14006KT 14/03 A2983 RMK A01 T01380028  RH  047%=      5-min Rain = 0
KTR1 132352Z 14006KT 13/03 A2983 RMK A01 T01340027  RH  048%=      5-min Rain = 0
KTR1 132353Z 14006KT 13/03 A2983 RMK A01 T01320029  RH  050%=      5-min Rain = 0
KTR1 132354Z 14007KT 13/03 A2983 RMK A01 T01320030  RH  050%=      5-min Rain = 0
KTR1 132355Z 14007KT 13/03 A2983 RMK A01 T01330031  RH  050%=      5-min Rain = 0
KTR1 132356Z 14007KT 13/03 A2983 RMK A01 T01340032  RH  050%=      5-min Rain = 0
KTR1 132357Z 14007KT 13/03 A2983 RMK A01 T01340032  RH  050%=      5-min Rain = 0
KTR1 132358Z 14007KT 14/03 A2983 RMK A01 T01350032  RH  050%=      5-min Rain = 0
KTR1 132359Z 13007KT 14/03 A2983 RMK A01 T01350032  RH  050%=      5-min Rain = 0
KTR1 140000Z 13006KT 14/03 A2983 RMK A01 T01360032  RH  049%=      5-min Rain = 0
KTR1 140001Z 13006KT 14/03 A2983 RMK A01 T01370032  RH  049%=      5-min Rain = 0
KTR1 140002Z 13006KT 14/03 A2983 RMK A01 T01360031  RH  049%=      5-min Rain = 0
KTR1 140003Z 13006KT 14/03 A2983 RMK A01 T01360032  RH  049%=      5-min Rain = 0
KTR1 140004Z 13006KT 14/03 A2983 RMK A01 T01360032  RH  049%=      5-min Rain = 0
KTR1 140005Z 13006KT 14/03 A2983 RMK A01 T01350031  RH  050%=      5-min Rain = 0
KTR1 140006Z 13005KT 13/03 A2983 RMK A01 T01330030  RH  050%=      5-min Rain = 0
KTR1 140007Z 13005KT 13/03 A2983 RMK A01 T01310030  RH  050%=      5-min Rain = 0
KTR1 140008Z 13004KT 13/03 A2983 RMK A01 T01300030  RH  051%=      5-min Rain = 0
KTR1 140009Z 14002KT 13/03 A2983 RMK A01 T01290030  RH  051%=      5-min Rain = 0
KTR1 140010Z 11002KT 13/03 A2983 RMK A01 T01290030  RH  051%=      5-min Rain = 0
KTR1 140011Z 09001KT 13/03 A2983 RMK A01 T01310030  RH  051%=      5-min Rain = 0
KTR1 140012Z 09002KT 13/03 A2983 RMK A01 T01320031  RH  050%=      5-min Rain = 0
KTR1 140013Z 11002KT 13/03 A2983 RMK A01 T01340031  RH  050%=      5-min Rain = 0
KTR1 140014Z 12002KT 14/03 A2983 RMK A01 T01360032  RH  049%=      5-min Rain = 0
KTR1 140015Z 13003KT 14/03 A2984 RMK A01 T01360031  RH  049%=      5-min Rain = 0
KTR1 140016Z 13003KT 14/03 A2984 RMK A01 T01350030  RH  049%=      5-min Rain = 0
KTR1 140017Z 13003KT 13/03 A2984 RMK A01 T01340029  RH  049%=      5-min Rain = 0
KTR1 140018Z 14003KT 13/03 A2984 RMK A01 T01330029  RH  049%=      5-min Rain = 0
KTR1 140019Z 14003KT 13/03 A2984 RMK A01 T01330029  RH  049%=      5-min Rain = 0
KTR1 140020Z 14003KT 13/03 A2984 RMK A01 T01340029  RH  049%=      5-min Rain = 0
KTR1 140021Z 13003KT 14/03 A2984 RMK A01 T01350029  RH  049%=      5-min Rain = 0
KTR1 140022Z 12002KT 14/03 A2984 RMK A01 T01360029  RH  048%=      5-min Rain = 0
KTR1 140023Z 12002KT 14/03 A2984 RMK A01 T01360029  RH  048%=      5-min Rain = 0
KTR1 140024Z 11002KT 14/03 A2984 RMK A01 T01370030  RH  048%=      5-min Rain = 0
KTR1 140025Z 11003KT 14/03 A2984 RMK A01 T01350030  RH  049%=      5-min Rain = 0
KTR1 140026Z 11003KT 13/03 A2984 RMK A01 T01330029  RH  049%=      5-min Rain = 0
KTR1 140027Z 12004KT 13/03 A2984 RMK A01 T01310029  RH  050%=      5-min Rain = 0
KTR1 140028Z 12004KT 13/03 A2984 RMK A01 T01300029  RH  050%=      5-min Rain = 0
KTR1 140029Z 12004KT 13/03 A2984 RMK A01 T01290029  RH  051%=      5-min Rain = 0
KTR1 140030Z 12004KT 13/03 A2984 RMK A01 T01280029  RH  051%=      5-min Rain = 0
KTR1 140031Z 12004KT 13/03 A2984 RMK A01 T01280029  RH  051%=      5-min Rain = 0
KTR1 140032Z 12004KT 13/03 A2984 RMK A01 T01300030  RH  051%=      5-min Rain = 0
KTR1 140033Z 12004KT 13/03 A2984 RMK A01 T01320030  RH  050%=      5-min Rain = 0
KTR1 140034Z 12004KT 13/03 A2984 RMK A01 T01330030  RH  050%=      5-min Rain = 0
KTR1 140035Z 12004KT 13/03 A2984 RMK A01 T01330030  RH  050%=      5-min Rain = 0
KTR1 140036Z 12005KT 13/03 A2984 RMK A01 T01330030  RH  050%=      5-min Rain = 0
KTR1 140037Z 12004KT 13/03 A2984 RMK A01 T01320029  RH  050%=      5-min Rain = 0
KTR1 140038Z 12004KT 13/03 A2984 RMK A01 T01300029  RH  050%=      5-min Rain = 0
KTR1 140039Z 12004KT 13/03 A2984 RMK A01 T01290029  RH  051%=      5-min Rain = 0
KTR1 140040Z 12004KT 13/03 A2984 RMK A01 T01270028  RH  051%=      5-min Rain = 0
KTR1 140041Z 12005KT 13/03 A2984 RMK A01 T01250028  RH  052%=      5-min Rain = 0
KTR1 140042Z 12005KT 12/03 A2984 RMK A01 T01240028  RH  052%=      5-min Rain = 0
KTR1 140043Z 12005KT 12/03 A2984 RMK A01 T01240028  RH  052%=      5-min Rain = 0
KTR1 140044Z 11005KT 12/03 A2984 RMK A01 T01240028  RH  052%=      5-min Rain = 0
KTR1 140045Z 12006KT 13/03 A2984 RMK A01 T01250028  RH  051%=      5-min Rain = 0
KTR1 140046Z 12006KT 13/03 A2984 RMK A01 T01260027  RH  051%=      5-min Rain = 0
KTR1 140047Z 12005KT 13/03 A2984 RMK A01 T01250027  RH  051%=      5-min Rain = 0
KTR1 140048Z 12005KT 12/03 A2985 RMK A01 T01230026  RH  051%=      5-min Rain = 0
KTR1 140049Z 13005KT 12/03 A2985 RMK A01 T01210025  RH  052%=      5-min Rain = 0
KTR1 140050Z 13005KT 12/02 A2985 RMK A01 T01180023  RH  052%=      5-min Rain = 0
KTR1 140051Z 13004KT 12/02 A2985 RMK A01 T01150023  RH  053%=      5-min Rain = 0
KTR1 140052Z 13004KT 11/02 A2985 RMK A01 T01130023  RH  054%=      5-min Rain = 0
KTR1 140053Z 14005KT 11/02 A2985 RMK A01 T01110023  RH  054%=      5-min Rain = 0
KTR1 140054Z 14005KT 11/02 A2985 RMK A01 T01100023  RH  055%=      5-min Rain = 0
KTR1 140055Z 13006KT 11/02 A2985 RMK A01 T01100022  RH  055%=      5-min Rain = 0
KTR1 140056Z 13006KT 11/02 A2985 RMK A01 T01090021  RH  054%=      5-min Rain = 0
KTR1 140057Z 13006KT 11/02 A2985 RMK A01 T01080020  RH  055%=      5-min Rain = 0
KTR1 140058Z 13006KT 11/02 A2985 RMK A01 T01070021  RH  055%=      5-min Rain = 0
KTR1 140059Z 13006KT 11/02 A2985 RMK A01 T01070022  RH  056%=      5-min Rain = 0
KTR1 140100Z 14006KT 11/02 A2985 RMK A01 T01070022  RH  056%=      5-min Rain = 0
KTR1 140101Z 14006KT 11/02 A2985 RMK A01 T01070022  RH  056%=      5-min Rain = 0
KTR1 140102Z 14006KT 11/02 A2985 RMK A01 T01070023  RH  056%=      5-min Rain = 0
KTR1 140103Z 14006KT 11/02 A2985 RMK A01 T01070023  RH  056%=      5-min Rain = 0
KTR1 140104Z 13007KT 11/02 A2985 RMK A01 T01080024  RH  056%=      5-min Rain = 0
KTR1 140105Z 13007KT 11/03 A2985 RMK A01 T01090025  RH  056%=      5-min Rain = 0
KTR1 140106Z 13007KT 11/03 A2985 RMK A01 T01110025  RH  056%=      5-min Rain = 0
KTR1 140107Z 13007KT 11/02 A2985 RMK A01 T01110024  RH  055%=      5-min Rain = 0
KTR1 140108Z 13007KT 11/02 A2985 RMK A01 T01120024  RH  055%=      5-min Rain = 0
KTR1 140109Z 13007KT 11/02 A2985 RMK A01 T01120024  RH  055%=      5-min Rain = 0
KTR1 140110Z 13007KT 11/02 A2985 RMK A01 T01120024  RH  055%=      5-min Rain = 0
KTR1 140111Z 14007KT 11/03 A2985 RMK A01 T01130025  RH  055%=      5-min Rain = 0
KTR1 140112Z 13007KT 11/03 A2985 RMK A01 T01130025  RH  054%=      5-min Rain = 0
KTR1 140113Z 14007KT 11/03 A2985 RMK A01 T01140025  RH  054%=      5-min Rain = 0
KTR1 140114Z 14007KT 11/03 A2985 RMK A01 T01130025  RH  055%=      5-min Rain = 0
KTR1 140115Z 14007KT 11/03 A2984 RMK A01 T01130026  RH  055%=      5-min Rain = 0
KTR1 140116Z 14007KT 11/02 A2984 RMK A01 T01130024  RH  054%=      5-min Rain = 0
KTR1 140117Z 14007KT 11/02 A2984 RMK A01 T01120023  RH  054%=      5-min Rain = 0
KTR1 140118Z 14007KT 11/02 A2984 RMK A01 T01100022  RH  055%=      5-min Rain = 0
KTR1 140119Z 14007KT 11/02 A2984 RMK A01 T01080022  RH  055%=      5-min Rain = 0
KTR1 140120Z 15007KT 11/02 A2984 RMK A01 T01080024  RH  056%=      5-min Rain = 0
KTR1 140121Z 15007KT 11/03 A2985 RMK A01 T01090026  RH  056%=      5-min Rain = 0
KTR1 140122Z 15007KT 11/02 A2985 RMK A01 T01090024  RH  056%=      5-min Rain = 0
KTR1 140123Z 15007KT 11/02 A2985 RMK A01 T01080024  RH  056%=      5-min Rain = 0
KTR1 140124Z 15008KT 11/02 A2985 RMK A01 T01070023  RH  056%=      5-min Rain = 0
KTR1 140125Z 14008KT 11/02 A2985 RMK A01 T01060023  RH  057%=      5-min Rain = 0
KTR1 140126Z 14007KT 11/02 A2985 RMK A01 T01050024  RH  057%=      5-min Rain = 0
KTR1 140127Z 14007KT 11/02 A2985 RMK A01 T01050024  RH  057%=      5-min Rain = 0
KTR1 140128Z 14007KT 11/02 A2984 RMK A01 T01050024  RH  057%=      5-min Rain = 0
KTR1 140129Z 14007KT 10/02 A2984 RMK A01 T01040024  RH  058%=      5-min Rain = 0
KTR1 140130Z 14007KT 10/02 A2984 RMK A01 T01040024  RH  058%=      5-min Rain = 0
KTR1 140131Z 14007KT 10/02 A2984 RMK A01 T01040024  RH  058%=      5-min Rain = 0
KTR1 140132Z 15006KT 10/02 A2984 RMK A01 T01040024  RH  058%=      5-min Rain = 0
KTR1 140133Z 15006KT 10/03 A2984 RMK A01 T01040025  RH  058%=      5-min Rain = 0
KTR1 140134Z 15006KT 10/03 A2984 RMK A01 T01040025  RH  058%=      5-min Rain = 0
KTR1 140135Z 15006KT 10/03 A2985 RMK A01 T01040025  RH  058%=      5-min Rain = 0
KTR1 140136Z 14007KT 10/03 A2985 RMK A01 T01040026  RH  058%=      5-min Rain = 0
KTR1 140137Z 14007KT 10/03 A2985 RMK A01 T01030026  RH  059%=      5-min Rain = 0
KTR1 140138Z 14007KT 10/03 A2985 RMK A01 T01030026  RH  058%=      5-min Rain = 0
KTR1 140139Z 14007KT 10/03 A2985 RMK A01 T01030025  RH  059%=      5-min Rain = 0
KTR1 140140Z 14006KT 10/03 A2985 RMK A01 T01020025  RH  059%=      5-min Rain = 0
KTR1 140141Z 13007KT 10/03 A2985 RMK A01 T01040026  RH  059%=      5-min Rain = 0
KTR1 140142Z 13007KT 11/03 A2985 RMK A01 T01050026  RH  058%=      5-min Rain = 0
KTR1 140143Z 13007KT 10/03 A2985 RMK A01 T01040026  RH  058%=      5-min Rain = 0
KTR1 140144Z 13007KT 10/03 A2985 RMK A01 T01040026  RH  059%=      5-min Rain = 0
KTR1 140145Z 14007KT 10/03 A2985 RMK A01 T01040026  RH  059%=      5-min Rain = 0
KTR1 140146Z 13007KT 10/03 A2985 RMK A01 T01040026  RH  058%=      5-min Rain = 0
KTR1 140147Z 14007KT 11/03 A2985 RMK A01 T01050025  RH  058%=      5-min Rain = 0
KTR1 140148Z 14007KT 10/03 A2985 RMK A01 T01040025  RH  058%=      5-min Rain = 0
KTR1 140149Z 14007KT 10/03 A2985 RMK A01 T01030025  RH  058%=      5-min Rain = 0
KTR1 140150Z 14007KT 10/02 A2985 RMK A01 T01030024  RH  058%=      5-min Rain = 0
KTR1 140151Z 14007KT 10/02 A2985 RMK A01 T01010024  RH  059%=      5-min Rain = 0
KTR1 140152Z 14007KT 10/03 A2985 RMK A01 T01000025  RH  059%=      5-min Rain = 0
KTR1 140153Z 14007KT 10/03 A2985 RMK A01 T00990025  RH  060%=      5-min Rain = 0
KTR1 140154Z 14006KT 10/03 A2985 RMK A01 T00990025  RH  060%=      5-min Rain = 0
KTR1 140155Z 14007KT 10/03 A2985 RMK A01 T00990026  RH  060%=      5-min Rain = 0
KTR1 140156Z 14007KT 10/03 A2985 RMK A01 T00990026  RH  060%=      5-min Rain = 0
KTR1 140157Z 14007KT 10/03 A2985 RMK A01 T00990025  RH  060%=      5-min Rain = 0
KTR1 140158Z 14007KT 10/03 A2985 RMK A01 T00980025  RH  060%=      5-min Rain = 0
KTR1 140159Z 14006KT 10/03 A2986 RMK A01 T00980026  RH  061%=      5-min Rain = 0
KTR1 140200Z 14006KT 10/03 A2986 RMK A01 T01000027  RH  061%=      5-min Rain = 0
KTR1 140201Z 14006KT 10/03 A2986 RMK A01 T01010028  RH  060%=      5-min Rain = 0
KTR1 140202Z 14006KT 10/03 A2986 RMK A01 T01020028  RH  060%=      5-min Rain = 0
KTR1 140203Z 14006KT 10/03 A2986 RMK A01 T01030028  RH  060%=      5-min Rain = 0
KTR1 140204Z 14006KT 10/03 A2986 RMK A01 T01040028  RH  059%=      5-min Rain = 0
KTR1 140205Z 13006KT 10/03 A2986 RMK A01 T01040028  RH  059%=      5-min Rain = 0
KTR1 140206Z 13006KT 10/03 A2986 RMK A01 T01030028  RH  059%=      5-min Rain = 0
KTR1 140207Z 13006KT 10/03 A2986 RMK A01 T01020027  RH  059%=      5-min Rain = 0
KTR1 140208Z 14006KT 10/03 A2987 RMK A01 T01010026  RH  060%=      5-min Rain = 0
KTR1 140209Z 14006KT 10/03 A2986 RMK A01 T01000026  RH  060%=      5-min Rain = 0
KTR1 140210Z 14006KT 10/03 A2986 RMK A01 T00990025  RH  060%=      5-min Rain = 0
KTR1 140211Z 15006KT 10/03 A2986 RMK A01 T00970026  RH  061%=      5-min Rain = 0
KTR1 140212Z 15006KT 10/03 A2986 RMK A01 T00960025  RH  061%=      5-min Rain = 0
KTR1 140213Z 14006KT 10/03 A2987 RMK A01 T00950025  RH  062%=      5-min Rain = 0
KTR1 140214Z 14005KT 10/03 A2987 RMK A01 T00950026  RH  062%=      5-min Rain = 0
KTR1 140215Z 14005KT 09/03 A2987 RMK A01 T00940026  RH  062%=      5-min Rain = 0
KTR1 140216Z 14005KT 10/03 A2987 RMK A01 T00950026  RH  062%=      5-min Rain = 0
KTR1 140217Z 15005KT 10/03 A2987 RMK A01 T00960027  RH  062%=      5-min Rain = 0
KTR1 140218Z 15006KT 10/03 A2987 RMK A01 T00970027  RH  062%=      5-min Rain = 0
KTR1 140219Z 14006KT 10/03 A2987 RMK A01 T00970027  RH  061%=      5-min Rain = 0
KTR1 140220Z 14007KT 10/03 A2987 RMK A01 T00970026  RH  061%=      5-min Rain = 0
KTR1 140221Z 14007KT 10/03 A2987 RMK A01 T00970026  RH  061%=      5-min Rain = 0
KTR1 140222Z 14007KT 10/03 A2987 RMK A01 T00950026  RH  062%=      5-min Rain = 0
KTR1 140223Z 14006KT 10/03 A2987 RMK A01 T00950027  RH  062%=      5-min Rain = 0
KTR1 140224Z 14006KT 10/03 A2987 RMK A01 T00950027  RH  063%=      5-min Rain = 0
KTR1 140225Z 14005KT 10/03 A2987 RMK A01 T00960028  RH  063%=      5-min Rain = 0
KTR1 140226Z 15005KT 10/03 A2987 RMK A01 T00960028  RH  063%=      5-min Rain = 0
KTR1 140227Z 15005KT 09/03 A2987 RMK A01 T00940025  RH  062%=      5-min Rain = 0
KTR1 140228Z 16005KT 09/02 A2987 RMK A01 T00910023  RH  062%=      5-min Rain = 0
KTR1 140229Z 16005KT 09/02 A2987 RMK A01 T00880022  RH  063%=      5-min Rain = 0
KTR1 140230Z 16005KT 09/02 A2987 RMK A01 T00860021  RH  064%=      5-min Rain = 0
KTR1 140231Z 17005KT 09/02 A2987 RMK A01 T00860023  RH  064%=      5-min Rain = 0
KTR1 140232Z 17005KT 09/02 A2987 RMK A01 T00870022  RH  064%=      5-min Rain = 0
KTR1 140233Z 17005KT 09/02 A2987 RMK A01 T00850020  RH  063%=      5-min Rain = 0
KTR1 140234Z 17005KT 08/02 A2987 RMK A01 T00830019  RH  064%=      5-min Rain = 0
KTR1 140235Z 17004KT 08/02 A2987 RMK A01 T00820018  RH  064%=      5-min Rain = 0
KTR1 140236Z 17004KT 08/02 A2987 RMK A01 T00800018  RH  065%=      5-min Rain = 0
KTR1 140237Z 16004KT 08/02 A2987 RMK A01 T00780018  RH  065%=      5-min Rain = 0
KTR1 140238Z 16003KT 08/02 A2987 RMK A01 T00770017  RH  066%=      5-min Rain = 0
KTR1 140239Z 16003KT 08/02 A2987 RMK A01 T00760017  RH  066%=      5-min Rain = 0
KTR1 140240Z 16003KT 08/02 A2987 RMK A01 T00750017  RH  067%=      5-min Rain = 0
KTR1 140241Z 15003KT 07/02 A2987 RMK A01 T00730018  RH  068%=      5-min Rain = 0
KTR1 140242Z 15003KT 07/02 A2987 RMK A01 T00730018  RH  068%=      5-min Rain = 0
KTR1 140243Z 16002KT 07/02 A2987 RMK A01 T00720019  RH  069%=      5-min Rain = 0
KTR1 140244Z 16002KT 07/02 A2987 RMK A01 T00720020  RH  069%=      5-min Rain = 0
KTR1 140245Z 16001KT 07/02 A2987 RMK A01 T00720020  RH  069%=      5-min Rain = 0
KTR1 140246Z 16001KT 07/02 A2987 RMK A01 T00710019  RH  070%=      5-min Rain = 0
KTR1 140247Z 16002KT 07/02 A2987 RMK A01 T00720020  RH  070%=      5-min Rain = 0
KTR1 140248Z 16002KT 07/02 A2987 RMK A01 T00740021  RH  069%=      5-min Rain = 0
KTR1 140249Z 16001KT 08/02 A2987 RMK A01 T00750022  RH  069%=      5-min Rain = 0
KTR1 140250Z 15001KT 08/02 A2987 RMK A01 T00770022  RH  068%=      5-min Rain = 0
KTR1 140251Z 14002KT 08/02 A2987 RMK A01 T00780022  RH  068%=      5-min Rain = 0
KTR1 140252Z 13001KT 08/02 A2987 RMK A01 T00790022  RH  067%=      5-min Rain = 0
KTR1 140253Z 11001KT 08/02 A2987 RMK A01 T00800023  RH  067%=      5-min Rain = 0
KTR1 140254Z 07001KT 08/03 A2987 RMK A01 T00820025  RH  067%=      5-min Rain = 0
KTR1 140255Z 07001KT 08/02 A2986 RMK A01 T00810023  RH  067%=      5-min Rain = 0
KTR1 140256Z 08002KT 08/02 A2986 RMK A01 T00790023  RH  068%=      5-min Rain = 0
KTR1 140257Z 08002KT 08/03 A2986 RMK A01 T00800026  RH  069%=      5-min Rain = 0
KTR1 140258Z 06002KT 08/03 A2986 RMK A01 T00830027  RH  068%=      5-min Rain = 0
KTR1 140259Z 05002KT 09/03 A2986 RMK A01 T00850028  RH  068%=      5-min Rain = 0
KTR1 140300Z 06002KT 09/03 A2986 RMK A01 T00870029  RH  067%=      5-min Rain = 0
KTR1 140301Z 05002KT 09/03 A2986 RMK A01 T00870026  RH  065%=      5-min Rain = 0
KTR1 140302Z 06003KT 08/02 A2986 RMK A01 T00830022  RH  066%=      5-min Rain = 0
KTR1 140303Z 06003KT 08/02 A2986 RMK A01 T00780021  RH  067%=      5-min Rain = 0
KTR1 140304Z 06002KT 08/02 A2986 RMK A01 T00760020  RH  068%=      5-min Rain = 0
KTR1 140305Z 05002KT 07/02 A2986 RMK A01 T00730019  RH  069%=      5-min Rain = 0
KTR1 140306Z 06002KT 07/02 A2986 RMK A01 T00720020  RH  070%=      5-min Rain = 0
KTR1 140307Z 06002KT 07/02 A2987 RMK A01 T00710021  RH  070%=      5-min Rain = 0
KTR1 140308Z 06002KT 07/02 A2987 RMK A01 T00700021  RH  071%=      5-min Rain = 0
KTR1 140309Z 06002KT 07/02 A2987 RMK A01 T00700022  RH  071%=      5-min Rain = 0
KTR1 140310Z 05002KT 07/02 A2987 RMK A01 T00700021  RH  071%=      5-min Rain = 0
KTR1 140311Z 04002KT 07/02 A2987 RMK A01 T00690021  RH  072%=      5-min Rain = 0
KTR1 140312Z 05001KT 07/02 A2987 RMK A01 T00690022  RH  072%=      5-min Rain = 0
KTR1 140313Z 05001KT 07/02 A2987 RMK A01 T00670021  RH  072%=      5-min Rain = 0
KTR1 140314Z 05001KT 07/02 A2987 RMK A01 T00670021  RH  072%=      5-min Rain = 0
KTR1 140315Z 05000KT 07/02 A2987 RMK A01 T00670019  RH  072%=      5-min Rain = 0
KTR1 140316Z 07000KT 07/02 A2987 RMK A01 T00650017  RH  071%=      5-min Rain = 0
KTR1 140317Z 07001KT 07/02 A2987 RMK A01 T00650017  RH  071%=      5-min Rain = 0
KTR1 140318Z 07001KT 07/02 A2987 RMK A01 T00660017  RH  071%=      5-min Rain = 0
KTR1 140319Z 08001KT 07/02 A2987 RMK A01 T00670019  RH  071%=      5-min Rain = 0
KTR1 140320Z 09001KT 07/02 A2986 RMK A01 T00680019  RH  071%=      5-min Rain = 0
KTR1 140321Z 09001KT 07/02 A2986 RMK A01 T00690018  RH  070%=      5-min Rain = 0
KTR1 140322Z 09002KT 07/02 A2986 RMK A01 T00670018  RH  071%=      5-min Rain = 0
KTR1 140323Z 10002KT 07/02 A2986 RMK A01 T00660019  RH  072%=      5-min Rain = 0
KTR1 140324Z 09002KT 07/02 A2986 RMK A01 T00650019  RH  072%=      5-min Rain = 0
KTR1 140325Z 09002KT 07/02 A2986 RMK A01 T00650021  RH  073%=      5-min Rain = 0
KTR1 140326Z 08002KT 07/02 A2986 RMK A01 T00650023  RH  074%=      5-min Rain = 0
KTR1 140327Z 08002KT 07/02 A2986 RMK A01 T00670023  RH  073%=      5-min Rain = 0
KTR1 140328Z 09001KT 07/02 A2986 RMK A01 T00690022  RH  072%=      5-min Rain = 0
KTR1 140329Z 08001KT 07/02 A2986 RMK A01 T00690020  RH  071%=      5-min Rain = 0
KTR1 140330Z 07000KT 07/02 A2986 RMK A01 T00690020  RH  071%=      5-min Rain = 0
KTR1 140331Z 00000KT 07/02 A2986 RMK A01 T00690019  RH  071%=      5-min Rain = 0
KTR1 140332Z 00000KT 07/02 A2987 RMK A01 T00680021  RH  072%=      5-min Rain = 0
KTR1 140333Z 00000KT 07/02 A2987 RMK A01 T00690021  RH  072%=      5-min Rain = 0
KTR1 140334Z 16000KT 07/02 A2987 RMK A01 T00700021  RH  071%=      5-min Rain = 0
KTR1 140335Z 14001KT 07/02 A2987 RMK A01 T00700020  RH  070%=      5-min Rain = 0
KTR1 140336Z 15001KT 07/02 A2986 RMK A01 T00700021  RH  071%=      5-min Rain = 0
KTR1 140337Z 15001KT 07/02 A2986 RMK A01 T00690020  RH  071%=      5-min Rain = 0
KTR1 140338Z 14001KT 07/02 A2986 RMK A01 T00680019  RH  071%=      5-min Rain = 0
KTR1 140339Z 14000KT 07/02 A2987 RMK A01 T00680018  RH  070%=      5-min Rain = 0
KTR1 140340Z 04000KT 07/02 A2987 RMK A01 T00660015  RH  070%=      5-min Rain = 0
KTR1 140341Z 03002KT 07/02 A2987 RMK A01 T00650018  RH  072%=      5-min Rain = 0
KTR1 140342Z 03002KT 07/02 A2987 RMK A01 T00650020  RH  073%=      5-min Rain = 0
KTR1 140343Z 03003KT 07/02 A2987 RMK A01 T00650021  RH  073%=      5-min Rain = 0
KTR1 140344Z 02003KT 07/02 A2986 RMK A01 T00660019  RH  072%=      5-min Rain = 0
KTR1 140345Z 02004KT 06/02 A2986 RMK A01 T00630015  RH  071%=      5-min Rain = 0
KTR1 140346Z 03004KT 06/01 A2986 RMK A01 T00590014  RH  073%=      5-min Rain = 0
KTR1 140347Z 04004KT 06/02 A2986 RMK A01 T00580018  RH  076%=      5-min Rain = 0
KTR1 140348Z 04004KT 06/02 A2986 RMK A01 T00590017  RH  075%=      5-min Rain = 0
KTR1 140349Z 04005KT 06/02 A2986 RMK A01 T00580016  RH  075%=      5-min Rain = 0
KTR1 140350Z 04005KT 06/02 A2986 RMK A01 T00560017  RH  076%=      5-min Rain = 0
KTR1 140351Z 04005KT 06/02 A2986 RMK A01 T00560019  RH  077%=      5-min Rain = 0
KTR1 140352Z 03005KT 06/02 A2987 RMK A01 T00560020  RH  078%=      5-min Rain = 0
KTR1 140353Z 03005KT 06/02 A2987 RMK A01 T00570021  RH  078%=      5-min Rain = 0
KTR1 140354Z 03005KT 06/02 A2987 RMK A01 T00580022  RH  078%=      5-min Rain = 0
KTR1 140355Z 03005KT 06/02 A2987 RMK A01 T00580022  RH  078%=      5-min Rain = 0
KTR1 140356Z 02004KT 06/02 A2987 RMK A01 T00590022  RH  077%=      5-min Rain = 0
KTR1 140357Z 02004KT 06/02 A2987 RMK A01 T00570019  RH  077%=      5-min Rain = 0
KTR1 140358Z 02004KT 05/02 A2987 RMK A01 T00530016  RH  077%=      5-min Rain = 0
KTR1 140359Z 02004KT 05/02 A2987 RMK A01 T00510015  RH  077%=      5-min Rain = 0
KTR1 140400Z 02004KT 05/01 A2987 RMK A01 T00490011  RH  077%=      5-min Rain = 0
KTR1 140401Z 02004KT 05/01 A2987 RMK A01 T00470008  RH  076%=      5-min Rain = 0
KTR1 140402Z 02004KT 05/01 A2987 RMK A01 T00460008  RH  077%=      5-min Rain = 0
KTR1 140403Z 02003KT 05/01 A2987 RMK A01 T00450010  RH  078%=      5-min Rain = 0
KTR1 140404Z 01003KT 05/01 A2987 RMK A01 T00460010  RH  078%=      5-min Rain = 0
KTR1 140405Z 01003KT 05/01 A2987 RMK A01 T00460009  RH  077%=      5-min Rain = 0
KTR1 140406Z 01003KT 05/01 A2987 RMK A01 T00460012  RH  079%=      5-min Rain = 0
KTR1 140407Z 01003KT 05/01 A2987 RMK A01 T00470013  RH  079%=      5-min Rain = 0
KTR1 140408Z 01003KT 05/01 A2987 RMK A01 T00470014  RH  079%=      5-min Rain = 0
KTR1 140409Z 01003KT 05/02 A2988 RMK A01 T00480015  RH  079%=      5-min Rain = 0
KTR1 140410Z 00003KT 05/02 A2988 RMK A01 T00500016  RH  079%=      5-min Rain = 0
KTR1 140411Z 36003KT 05/02 A2988 RMK A01 T00510016  RH  078%=      5-min Rain = 0
KTR1 140412Z 35002KT 05/02 A2988 RMK A01 T00520015  RH  077%=      5-min Rain = 0
KTR1 140413Z 34002KT 05/02 A2988 RMK A01 T00530017  RH  078%=      5-min Rain = 0
KTR1 140414Z 34002KT 05/02 A2988 RMK A01 T00540018  RH  077%=      5-min Rain = 0
KTR1 140415Z 33002KT 06/02 A2988 RMK A01 T00550019  RH  078%=      5-min Rain = 0
KTR1 140416Z 33003KT 06/02 A2988 RMK A01 T00550018  RH  077%=      5-min Rain = 0
KTR1 140417Z 33003KT 06/02 A2988 RMK A01 T00550017  RH  076%=      5-min Rain = 0
KTR1 140418Z 33004KT 05/02 A2988 RMK A01 T00530015  RH  077%=      5-min Rain = 0
KTR1 140419Z 34004KT 05/02 A2989 RMK A01 T00510015  RH  077%=      5-min Rain = 0
KTR1 140420Z 34004KT 05/01 A2989 RMK A01 T00480013  RH  078%=      5-min Rain = 0
KTR1 140421Z 34005KT 05/01 A2989 RMK A01 T00460012  RH  079%=      5-min Rain = 0
KTR1 140422Z 34005KT 04/01 A2989 RMK A01 T00440012  RH  080%=      5-min Rain = 0
KTR1 140423Z 33004KT 04/01 A2989 RMK A01 T00430011  RH  080%=      5-min Rain = 0
KTR1 140424Z 33004KT 04/01 A299 RMK A01 T00410011  RH  081%=      5-min Rain = 0
KTR1 140425Z 32005KT 04/01 A299 RMK A01 T00400011  RH  081%=      5-min Rain = 0
KTR1 140426Z 32005KT 04/01 A299 RMK A01 T00400011  RH  082%=      5-min Rain = 0
KTR1 140427Z 32004KT 04/01 A299 RMK A01 T00400012  RH  082%=      5-min Rain = 0
KTR1 140428Z 32004KT 04/01 A299 RMK A01 T00410012  RH  082%=      5-min Rain = 0
KTR1 140429Z 33004KT 04/01 A299 RMK A01 T00410012  RH  081%=      5-min Rain = 0
KTR1 140430Z 33004KT 04/01 A299 RMK A01 T00420013  RH  081%=      5-min Rain = 0
KTR1 140431Z 33004KT 04/02 A299 RMK A01 T00430016  RH  083%=      5-min Rain = 0
KTR1 140432Z 33004KT 05/02 A299 RMK A01 T00460018  RH  082%=      5-min Rain = 0
KTR1 140433Z 32004KT 05/02 A299 RMK A01 T00480019  RH  081%=      5-min Rain = 0
KTR1 140434Z 31004KT 05/02 A299 RMK A01 T00490019  RH  081%=      5-min Rain = 0
KTR1 140435Z 31004KT 05/02 A299 RMK A01 T00490015  RH  078%=      5-min Rain = 0
KTR1 140436Z 32004KT 05/01 A299 RMK A01 T00470012  RH  078%=      5-min Rain = 0
KTR1 140437Z 32004KT 05/01 A299 RMK A01 T00460013  RH  079%=      5-min Rain = 0
KTR1 140438Z 32004KT 05/01 A299 RMK A01 T00450013  RH  079%=      5-min Rain = 0
KTR1 140439Z 33004KT 05/01 A299 RMK A01 T00450014  RH  080%=      5-min Rain = 0
KTR1 140440Z 33004KT 05/01 A2989 RMK A01 T00460014  RH  080%=      5-min Rain = 0
KTR1 140441Z 34004KT 05/02 A2989 RMK A01 T00460018  RH  082%=      5-min Rain = 0
KTR1 140442Z 34004KT 05/02 A2989 RMK A01 T00490021  RH  082%=      5-min Rain = 0
KTR1 140443Z 34004KT 05/02 A2989 RMK A01 T00510023  RH  082%=      5-min Rain = 0
KTR1 140444Z 34004KT 05/02 A2989 RMK A01 T00520022  RH  081%=      5-min Rain = 0
KTR1 140445Z 33005KT 05/02 A2989 RMK A01 T00520022  RH  081%=      5-min Rain = 0
KTR1 140446Z 32005KT 05/02 A2989 RMK A01 T00520022  RH  081%=      5-min Rain = 0
KTR1 140447Z 31004KT 05/02 A2989 RMK A01 T00530022  RH  080%=      5-min Rain = 0
KTR1 140448Z 31004KT 05/02 A299 RMK A01 T00520018  RH  079%=      5-min Rain = 0
KTR1 140449Z 31004KT 05/01 A299 RMK A01 T00490014  RH  078%=      5-min Rain = 0
KTR1 140450Z 30003KT 05/01 A299 RMK A01 T00460011  RH  078%=      5-min Rain = 0
KTR1 140451Z 31003KT 04/01 A299 RMK A01 T00430007  RH  078%=      5-min Rain = 0
KTR1 140452Z 31004KT 04/01 A299 RMK A01 T00410008  RH  079%=      5-min Rain = 0
KTR1 140453Z 31004KT 04/01 A299 RMK A01 T00410010  RH  081%=      5-min Rain = 0
KTR1 140454Z 31005KT 04/01 A299 RMK A01 T00410013  RH  082%=      5-min Rain = 0
KTR1 140455Z 32005KT 04/02 A299 RMK A01 T00430016  RH  082%=      5-min Rain = 0
KTR1 140456Z 32005KT 05/02 A299 RMK A01 T00460019  RH  083%=      5-min Rain = 0
KTR1 140457Z 32006KT 05/02 A299 RMK A01 T00480019  RH  081%=      5-min Rain = 0
KTR1 140458Z 32006KT 05/02 A299 RMK A01 T00480017  RH  080%=      5-min Rain = 0
KTR1 140459Z 32005KT 05/02 A299 RMK A01 T00480016  RH  080%=      5-min Rain = 0
KTR1 140500Z 32005KT 05/02 A299 RMK A01 T00470016  RH  080%=      5-min Rain = 0
KTR1 140501Z 32005KT 05/02 A299 RMK A01 T00460015  RH  080%=      5-min Rain = 0
KTR1 140502Z 32005KT 05/01 A299 RMK A01 T00450014  RH  080%=      5-min Rain = 0
KTR1 140503Z 33006KT 04/01 A299 RMK A01 T00440013  RH  081%=      5-min Rain = 0
KTR1 140504Z 33006KT 04/01 A299 RMK A01 T00430014  RH  081%=      5-min Rain = 0
KTR1 140505Z 33005KT 04/02 A299 RMK A01 T00420015  RH  082%=      5-min Rain = 0
KTR1 140506Z 33005KT 04/02 A299 RMK A01 T00420015  RH  083%=      5-min Rain = 0
KTR1 140507Z 33006KT 04/02 A299 RMK A01 T00420016  RH  083%=      5-min Rain = 0
KTR1 140508Z 34006KT 04/02 A299 RMK A01 T00430019  RH  085%=      5-min Rain = 0
KTR1 140509Z 34006KT 05/02 A299 RMK A01 T00450022  RH  085%=      5-min Rain = 0
KTR1 140510Z 34006KT 05/02 A299 RMK A01 T00480024  RH  084%=      5-min Rain = 0
KTR1 140511Z 34006KT 05/02 A299 RMK A01 T00490024  RH  084%=      5-min Rain = 0
KTR1 140512Z 34006KT 05/02 A299 RMK A01 T00500024  RH  083%=      5-min Rain = 0
KTR1 140513Z 34006KT 05/02 A299 RMK A01 T00500024  RH  084%=      5-min Rain = 0
KTR1 140514Z 34006KT 05/03 A299 RMK A01 T00490025  RH  084%=      5-min Rain = 0
KTR1 140515Z 33006KT 05/03 A299 RMK A01 T00490025  RH  084%=      5-min Rain = 0
KTR1 140516Z 33006KT 05/03 A299 RMK A01 T00480025  RH  085%=      5-min Rain = 0
KTR1 140517Z 33006KT 05/02 A299 RMK A01 T00480024  RH  084%=      5-min Rain = 0
KTR1 140518Z 33006KT 05/02 A299 RMK A01 T00480022  RH  083%=      5-min Rain = 0
KTR1 140519Z 33006KT 05/02 A299 RMK A01 T00470021  RH  083%=      5-min Rain = 0
KTR1 140520Z 33006KT 05/02 A299 RMK A01 T00460020  RH  083%=      5-min Rain = 0
KTR1 140521Z 33006KT 05/02 A299 RMK A01 T00450020  RH  084%=      5-min Rain = 0
KTR1 140522Z 34006KT 05/02 A299 RMK A01 T00450021  RH  085%=      5-min Rain = 0
KTR1 140523Z 34006KT 05/02 A299 RMK A01 T00450022  RH  085%=      5-min Rain = 0
KTR1 140524Z 34006KT 05/02 A299 RMK A01 T00460022  RH  085%=      5-min Rain = 0
KTR1 140525Z 35006KT 05/02 A299 RMK A01 T00460022  RH  085%=      5-min Rain = 0
KTR1 140526Z 35005KT 05/02 A299 RMK A01 T00450023  RH  086%=      5-min Rain = 0
KTR1 140527Z 35005KT 04/02 A299 RMK A01 T00440024  RH  086%=      5-min Rain = 0
KTR1 140528Z 35005KT 04/02 A299 RMK A01 T00440024  RH  087%=      5-min Rain = 0
KTR1 140529Z 35005KT 05/03 A299 RMK A01 T00450025  RH  087%=      5-min Rain = 0
KTR1 140530Z 35004KT 05/03 A299 RMK A01 T00460026  RH  087%=      5-min Rain = 0
KTR1 140531Z 35003KT 05/03 A299 RMK A01 T00460026  RH  087%=      5-min Rain = 0
KTR1 140532Z 35003KT 05/03 A299 RMK A01 T00460026  RH  087%=      5-min Rain = 0
KTR1 140533Z 36002KT 05/03 A299 RMK A01 T00460025  RH  086%=      5-min Rain = 0
KTR1 140534Z 36003KT 05/03 A299 RMK A01 T00460025  RH  086%=      5-min Rain = 0
KTR1 140535Z 35003KT 05/03 A299 RMK A01 T00450025  RH  087%=      5-min Rain = 0
KTR1 140536Z 35004KT 05/03 A299 RMK A01 T00460026  RH  087%=      5-min Rain = 0
KTR1 140537Z 35004KT 05/03 A299 RMK A01 T00470027  RH  087%=      5-min Rain = 0
KTR1 140538Z 35004KT 05/03 A299 RMK A01 T00470026  RH  086%=      5-min Rain = 0
KTR1 140539Z 35004KT 05/03 A299 RMK A01 T00470025  RH  086%=      5-min Rain = 0
KTR1 140540Z 35004KT 05/02 A299 RMK A01 T00460024  RH  086%=      5-min Rain = 0
KTR1 140541Z 35004KT 05/02 A299 RMK A01 T00460024  RH  086%=      5-min Rain = 0
KTR1 140542Z 36004KT 05/02 A299 RMK A01 T00450023  RH  085%=      5-min Rain = 0
KTR1 140543Z 35003KT 04/02 A299 RMK A01 T00440021  RH  085%=      5-min Rain = 0
KTR1 140544Z 35003KT 04/02 A299 RMK A01 T00430020  RH  085%=      5-min Rain = 0
KTR1 140545Z 34002KT 04/02 A299 RMK A01 T00420019  RH  085%=      5-min Rain = 0
KTR1 140546Z 33002KT 04/02 A299 RMK A01 T00410019  RH  085%=      5-min Rain = 0
KTR1 140547Z 32002KT 04/02 A299 RMK A01 T00390018  RH  086%=      5-min Rain = 0
KTR1 140548Z 32002KT 04/02 A299 RMK A01 T00380018  RH  086%=      5-min Rain = 0
KTR1 140549Z 32003KT 04/02 A299 RMK A01 T00380018  RH  087%=      5-min Rain = 0
KTR1 140550Z 32003KT 04/02 A299 RMK A01 T00380019  RH  087%=      5-min Rain = 0
KTR1 140551Z 32003KT 04/02 A299 RMK A01 T00380019  RH  087%=      5-min Rain = 0
KTR1 140552Z 32003KT 04/02 A299 RMK A01 T00380017  RH  086%=      5-min Rain = 0
KTR1 140553Z 33003KT 04/02 A2989 RMK A01 T00370017  RH  087%=      5-min Rain = 0
KTR1 140554Z 33003KT 04/02 A2989 RMK A01 T00380017  RH  087%=      5-min Rain = 0
KTR1 140555Z 33003KT 04/02 A2989 RMK A01 T00380017  RH  087%=      5-min Rain = 0
KTR1 140556Z 33003KT 04/02 A2989 RMK A01 T00390019  RH  087%=      5-min Rain = 0
KTR1 140557Z 34003KT 04/02 A2989 RMK A01 T00400020  RH  087%=      5-min Rain = 0
KTR1 140558Z 34004KT 04/02 A2989 RMK A01 T00400020  RH  087%=      5-min Rain = 0
KTR1 140559Z 33004KT 04/02 A2989 RMK A01 T00410020  RH  086%=      5-min Rain = 0

Page generated in 0.0633 seconds.